<?xml version="1.0" encoding="UTF-8" standalone="no" ?>
<gpx xmlns="http://www.topografix.com/GPX/1/1" xmlns:xsi="http://www.w3.org/2001/XMLSchema-instance" xsi:schemaLocation="http://www.topografix.com/GPX/1/1 http://www.topografix.com/GPX/1/1/gpx.xsd" version="1.1" creator="VisuGPX - https://www.visugpx.com">
  <metadata>
    <name>Tardevant 2025</name>
    <desc><![CDATA[grp_trc:]]></desc>
  </metadata>
  <trk>
    <name><![CDATA[Tardevant 2025_1]]></name>
    <desc><![CDATA[comment ...]]></desc>
    <trkseg>
      <trkpt lat="45.92292" lon="6.48387">
        <ele>1445</ele>
        <time>2025-04-02T07:49:30Z</time>
      </trkpt>
      <trkpt lat="45.92266" lon="6.484">
        <ele>1445</ele>
        <time>2025-04-02T07:50:00Z</time>
      </trkpt>
      <trkpt lat="45.9224" lon="6.48414">
        <ele>1446</ele>
        <time>2025-04-02T07:50:32Z</time>
      </trkpt>
      <trkpt lat="45.92232" lon="6.48417">
        <ele>1448</ele>
        <time>2025-04-02T07:50:42Z</time>
      </trkpt>
      <trkpt lat="45.92234" lon="6.48423">
        <ele>1448</ele>
        <time>2025-04-02T07:50:44Z</time>
      </trkpt>
      <trkpt lat="45.92222" lon="6.48436">
        <ele>1453</ele>
        <time>2025-04-02T07:51:01Z</time>
      </trkpt>
      <trkpt lat="45.92199" lon="6.4845">
        <ele>1453</ele>
        <time>2025-04-02T07:51:33Z</time>
      </trkpt>
      <trkpt lat="45.92177" lon="6.48476">
        <ele>1457</ele>
        <time>2025-04-02T07:52:11Z</time>
      </trkpt>
      <trkpt lat="45.9217" lon="6.48487">
        <ele>1460</ele>
        <time>2025-04-02T07:52:25Z</time>
      </trkpt>
      <trkpt lat="45.92157" lon="6.48505">
        <ele>1464</ele>
        <time>2025-04-02T07:52:49Z</time>
      </trkpt>
      <trkpt lat="45.9215" lon="6.48516">
        <ele>1465</ele>
        <time>2025-04-02T07:53:01Z</time>
      </trkpt>
      <trkpt lat="45.92147" lon="6.48528">
        <ele>1465</ele>
        <time>2025-04-02T07:53:13Z</time>
      </trkpt>
      <trkpt lat="45.92144" lon="6.48561">
        <ele>1469</ele>
        <time>2025-04-02T07:53:39Z</time>
      </trkpt>
      <trkpt lat="45.92143" lon="6.48566">
        <ele>1469</ele>
        <time>2025-04-02T07:53:43Z</time>
      </trkpt>
      <trkpt lat="45.92128" lon="6.48606">
        <ele>1468</ele>
        <time>2025-04-02T07:54:15Z</time>
      </trkpt>
      <trkpt lat="45.92116" lon="6.48635">
        <ele>1466</ele>
        <time>2025-04-02T07:54:35Z</time>
      </trkpt>
      <trkpt lat="45.92116" lon="6.48642">
        <ele>1465</ele>
        <time>2025-04-02T07:54:41Z</time>
      </trkpt>
      <trkpt lat="45.92115" lon="6.48657">
        <ele>1465</ele>
        <time>2025-04-02T07:54:51Z</time>
      </trkpt>
      <trkpt lat="45.92119" lon="6.48672">
        <ele>1465</ele>
        <time>2025-04-02T07:55:01Z</time>
      </trkpt>
      <trkpt lat="45.92125" lon="6.48682">
        <ele>1466</ele>
        <time>2025-04-02T07:55:09Z</time>
      </trkpt>
      <trkpt lat="45.92148" lon="6.4871">
        <ele>1467</ele>
        <time>2025-04-02T07:55:39Z</time>
      </trkpt>
      <trkpt lat="45.92153" lon="6.48722">
        <ele>1466</ele>
        <time>2025-04-02T07:55:49Z</time>
      </trkpt>
      <trkpt lat="45.92164" lon="6.48763">
        <ele>1462</ele>
        <time>2025-04-02T07:56:19Z</time>
      </trkpt>
      <trkpt lat="45.92173" lon="6.48804">
        <ele>1458</ele>
        <time>2025-04-02T07:56:49Z</time>
      </trkpt>
      <trkpt lat="45.92173" lon="6.48817">
        <ele>1457</ele>
        <time>2025-04-02T07:56:57Z</time>
      </trkpt>
      <trkpt lat="45.9217" lon="6.48834">
        <ele>1456</ele>
        <time>2025-04-02T07:57:09Z</time>
      </trkpt>
      <trkpt lat="45.9216" lon="6.48858">
        <ele>1451</ele>
        <time>2025-04-02T07:57:29Z</time>
      </trkpt>
      <trkpt lat="45.92158" lon="6.48863">
        <ele>1451</ele>
        <time>2025-04-02T07:57:33Z</time>
      </trkpt>
      <trkpt lat="45.92158" lon="6.48873">
        <ele>1451</ele>
        <time>2025-04-02T07:57:41Z</time>
      </trkpt>
      <trkpt lat="45.92158" lon="6.48878">
        <ele>1452</ele>
        <time>2025-04-02T07:57:45Z</time>
      </trkpt>
      <trkpt lat="45.9216" lon="6.48883">
        <ele>1452</ele>
        <time>2025-04-02T07:57:49Z</time>
      </trkpt>
      <trkpt lat="45.92168" lon="6.48893">
        <ele>1452</ele>
        <time>2025-04-02T07:57:59Z</time>
      </trkpt>
      <trkpt lat="45.92175" lon="6.48902">
        <ele>1453</ele>
        <time>2025-04-02T07:58:09Z</time>
      </trkpt>
      <trkpt lat="45.92199" lon="6.48927">
        <ele>1453</ele>
        <time>2025-04-02T07:58:41Z</time>
      </trkpt>
      <trkpt lat="45.92222" lon="6.48955">
        <ele>1456</ele>
        <time>2025-04-02T07:59:17Z</time>
      </trkpt>
      <trkpt lat="45.9223" lon="6.48965">
        <ele>1458</ele>
        <time>2025-04-02T07:59:31Z</time>
      </trkpt>
      <trkpt lat="45.92234" lon="6.48976">
        <ele>1458</ele>
        <time>2025-04-02T07:59:45Z</time>
      </trkpt>
      <trkpt lat="45.92254" lon="6.49006">
        <ele>1460</ele>
        <time>2025-04-02T08:00:23Z</time>
      </trkpt>
      <trkpt lat="45.92268" lon="6.49025">
        <ele>1462</ele>
        <time>2025-04-02T08:00:47Z</time>
      </trkpt>
      <trkpt lat="45.92274" lon="6.49036">
        <ele>1464</ele>
        <time>2025-04-02T08:01:01Z</time>
      </trkpt>
      <trkpt lat="45.92287" lon="6.49056">
        <ele>1467</ele>
        <time>2025-04-02T08:01:29Z</time>
      </trkpt>
      <trkpt lat="45.92295" lon="6.49063">
        <ele>1470</ele>
        <time>2025-04-02T08:01:41Z</time>
      </trkpt>
      <trkpt lat="45.92313" lon="6.49071">
        <ele>1472</ele>
        <time>2025-04-02T08:02:07Z</time>
      </trkpt>
      <trkpt lat="45.92327" lon="6.49073">
        <ele>1473</ele>
        <time>2025-04-02T08:02:20Z</time>
      </trkpt>
      <trkpt lat="45.92332" lon="6.49074">
        <ele>1473</ele>
        <time>2025-04-02T08:02:29Z</time>
      </trkpt>
      <trkpt lat="45.92342" lon="6.49087">
        <ele>1477</ele>
        <time>2025-04-02T08:02:49Z</time>
      </trkpt>
      <trkpt lat="45.92355" lon="6.49104">
        <ele>1478</ele>
        <time>2025-04-02T08:03:13Z</time>
      </trkpt>
      <trkpt lat="45.92366" lon="6.49116">
        <ele>1480</ele>
        <time>2025-04-02T08:03:31Z</time>
      </trkpt>
      <trkpt lat="45.92385" lon="6.49122">
        <ele>1483</ele>
        <time>2025-04-02T08:03:57Z</time>
      </trkpt>
      <trkpt lat="45.92394" lon="6.49119">
        <ele>1485</ele>
        <time>2025-04-02T08:04:13Z</time>
      </trkpt>
      <trkpt lat="45.92414" lon="6.49118">
        <ele>1488</ele>
        <time>2025-04-02T08:04:43Z</time>
      </trkpt>
      <trkpt lat="45.92423" lon="6.49116">
        <ele>1489</ele>
        <time>2025-04-02T08:04:55Z</time>
      </trkpt>
      <trkpt lat="45.92433" lon="6.49116">
        <ele>1491</ele>
        <time>2025-04-02T08:05:09Z</time>
      </trkpt>
      <trkpt lat="45.92442" lon="6.4912">
        <ele>1491</ele>
        <time>2025-04-02T08:05:23Z</time>
      </trkpt>
      <trkpt lat="45.92455" lon="6.49141">
        <ele>1494</ele>
        <time>2025-04-02T08:05:53Z</time>
      </trkpt>
      <trkpt lat="45.92475" lon="6.49177">
        <ele>1497</ele>
        <time>2025-04-02T08:06:33Z</time>
      </trkpt>
      <trkpt lat="45.92491" lon="6.49195">
        <ele>1496</ele>
        <time>2025-04-02T08:06:53Z</time>
      </trkpt>
      <trkpt lat="45.92519" lon="6.49212">
        <ele>1493</ele>
        <time>2025-04-02T08:07:21Z</time>
      </trkpt>
      <trkpt lat="45.92528" lon="6.49219">
        <ele>1493</ele>
        <time>2025-04-02T08:07:31Z</time>
      </trkpt>
      <trkpt lat="45.92568" lon="6.49226">
        <ele>1492</ele>
        <time>2025-04-02T08:08:11Z</time>
      </trkpt>
      <trkpt lat="45.92607" lon="6.49232">
        <ele>1492</ele>
        <time>2025-04-02T08:08:49Z</time>
      </trkpt>
      <trkpt lat="45.92616" lon="6.49237">
        <ele>1491</ele>
        <time>2025-04-02T08:08:59Z</time>
      </trkpt>
      <trkpt lat="45.92639" lon="6.49261">
        <ele>1489</ele>
        <time>2025-04-02T08:09:31Z</time>
      </trkpt>
      <trkpt lat="45.92677" lon="6.49283">
        <ele>1486</ele>
        <time>2025-04-02T08:10:07Z</time>
      </trkpt>
      <trkpt lat="45.92698" lon="6.49307">
        <ele>1485</ele>
        <time>2025-04-02T08:10:41Z</time>
      </trkpt>
      <trkpt lat="45.92702" lon="6.49318">
        <ele>1486</ele>
        <time>2025-04-02T08:10:53Z</time>
      </trkpt>
      <trkpt lat="45.92705" lon="6.49331">
        <ele>1485</ele>
        <time>2025-04-02T08:11:06Z</time>
      </trkpt>
      <trkpt lat="45.92709" lon="6.49358">
        <ele>1487</ele>
        <time>2025-04-02T08:11:28Z</time>
      </trkpt>
      <trkpt lat="45.92714" lon="6.49368">
        <ele>1489</ele>
        <time>2025-04-02T08:11:38Z</time>
      </trkpt>
      <trkpt lat="45.92728" lon="6.49403">
        <ele>1491</ele>
        <time>2025-04-02T08:12:12Z</time>
      </trkpt>
      <trkpt lat="45.92737" lon="6.49428">
        <ele>1492</ele>
        <time>2025-04-02T08:12:34Z</time>
      </trkpt>
      <trkpt lat="45.92742" lon="6.49439">
        <ele>1493</ele>
        <time>2025-04-02T08:12:44Z</time>
      </trkpt>
      <trkpt lat="45.92751" lon="6.49461">
        <ele>1493</ele>
        <time>2025-04-02T08:13:12Z</time>
      </trkpt>
      <trkpt lat="45.92752" lon="6.49466">
        <ele>1493</ele>
        <time>2025-04-02T08:17:58Z</time>
      </trkpt>
      <trkpt lat="45.92748" lon="6.49469">
        <ele>1493</ele>
        <time>2025-04-02T08:18:38Z</time>
      </trkpt>
      <trkpt lat="45.92742" lon="6.49474">
        <ele>1493</ele>
        <time>2025-04-02T08:19:38Z</time>
      </trkpt>
      <trkpt lat="45.92733" lon="6.49476">
        <ele>1493</ele>
        <time>2025-04-02T08:20:08Z</time>
      </trkpt>
      <trkpt lat="45.92729" lon="6.49476">
        <ele>1493</ele>
        <time>2025-04-02T08:20:12Z</time>
      </trkpt>
      <trkpt lat="45.92725" lon="6.49477">
        <ele>1492</ele>
        <time>2025-04-02T08:20:16Z</time>
      </trkpt>
      <trkpt lat="45.92698" lon="6.49459">
        <ele>1491</ele>
        <time>2025-04-02T08:20:44Z</time>
      </trkpt>
      <trkpt lat="45.92698" lon="6.49453">
        <ele>1492</ele>
        <time>2025-04-02T08:20:47Z</time>
      </trkpt>
      <trkpt lat="45.92693" lon="6.49451">
        <ele>1492</ele>
        <time>2025-04-02T08:20:52Z</time>
      </trkpt>
      <trkpt lat="45.92685" lon="6.49451">
        <ele>1494</ele>
        <time>2025-04-02T08:21:00Z</time>
      </trkpt>
      <trkpt lat="45.92681" lon="6.49454">
        <ele>1494</ele>
        <time>2025-04-02T08:21:04Z</time>
      </trkpt>
      <trkpt lat="45.92668" lon="6.49469">
        <ele>1493</ele>
        <time>2025-04-02T08:21:20Z</time>
      </trkpt>
      <trkpt lat="45.92654" lon="6.49491">
        <ele>1495</ele>
        <time>2025-04-02T08:21:46Z</time>
      </trkpt>
      <trkpt lat="45.92649" lon="6.49503">
        <ele>1495</ele>
        <time>2025-04-02T08:21:58Z</time>
      </trkpt>
      <trkpt lat="45.92642" lon="6.49545">
        <ele>1496</ele>
        <time>2025-04-02T08:22:42Z</time>
      </trkpt>
      <trkpt lat="45.92641" lon="6.49558">
        <ele>1497</ele>
        <time>2025-04-02T08:22:56Z</time>
      </trkpt>
      <trkpt lat="45.92637" lon="6.49586">
        <ele>1496</ele>
        <time>2025-04-02T08:23:20Z</time>
      </trkpt>
      <trkpt lat="45.92636" lon="6.49626">
        <ele>1502</ele>
        <time>2025-04-02T08:23:54Z</time>
      </trkpt>
      <trkpt lat="45.92631" lon="6.49638">
        <ele>1503</ele>
        <time>2025-04-02T08:24:08Z</time>
      </trkpt>
      <trkpt lat="45.92625" lon="6.49666">
        <ele>1505</ele>
        <time>2025-04-02T08:24:32Z</time>
      </trkpt>
      <trkpt lat="45.92623" lon="6.4968">
        <ele>1506</ele>
        <time>2025-04-02T08:24:44Z</time>
      </trkpt>
      <trkpt lat="45.92625" lon="6.49694">
        <ele>1508</ele>
        <time>2025-04-02T08:24:58Z</time>
      </trkpt>
      <trkpt lat="45.92626" lon="6.49708">
        <ele>1508</ele>
        <time>2025-04-02T08:25:16Z</time>
      </trkpt>
      <trkpt lat="45.92638" lon="6.49733">
        <ele>1510</ele>
        <time>2025-04-02T08:25:44Z</time>
      </trkpt>
      <trkpt lat="45.92644" lon="6.49746">
        <ele>1511</ele>
        <time>2025-04-02T08:25:58Z</time>
      </trkpt>
      <trkpt lat="45.9265" lon="6.49754">
        <ele>1513</ele>
        <time>2025-04-02T08:26:10Z</time>
      </trkpt>
      <trkpt lat="45.92654" lon="6.49767">
        <ele>1516</ele>
        <time>2025-04-02T08:26:26Z</time>
      </trkpt>
      <trkpt lat="45.92657" lon="6.4978">
        <ele>1518</ele>
        <time>2025-04-02T08:26:40Z</time>
      </trkpt>
      <trkpt lat="45.92661" lon="6.49806">
        <ele>1519</ele>
        <time>2025-04-02T08:27:18Z</time>
      </trkpt>
      <trkpt lat="45.92665" lon="6.49818">
        <ele>1524</ele>
        <time>2025-04-02T08:27:30Z</time>
      </trkpt>
      <trkpt lat="45.92672" lon="6.49843">
        <ele>1527</ele>
        <time>2025-04-02T08:29:36Z</time>
      </trkpt>
      <trkpt lat="45.92673" lon="6.49856">
        <ele>1527</ele>
        <time>2025-04-02T08:29:50Z</time>
      </trkpt>
      <trkpt lat="45.92672" lon="6.49869">
        <ele>1529</ele>
        <time>2025-04-02T08:30:02Z</time>
      </trkpt>
      <trkpt lat="45.92673" lon="6.49891">
        <ele>1530</ele>
        <time>2025-04-02T08:30:22Z</time>
      </trkpt>
      <trkpt lat="45.92673" lon="6.49897">
        <ele>1530</ele>
        <time>2025-04-02T08:30:28Z</time>
      </trkpt>
      <trkpt lat="45.92675" lon="6.49908">
        <ele>1531</ele>
        <time>2025-04-02T08:30:40Z</time>
      </trkpt>
      <trkpt lat="45.92675" lon="6.49924">
        <ele>1534</ele>
        <time>2025-04-02T08:31:00Z</time>
      </trkpt>
      <trkpt lat="45.92679" lon="6.49941">
        <ele>1537</ele>
        <time>2025-04-02T08:31:20Z</time>
      </trkpt>
      <trkpt lat="45.9268" lon="6.4996">
        <ele>1538</ele>
        <time>2025-04-02T08:31:44Z</time>
      </trkpt>
      <trkpt lat="45.92679" lon="6.49973">
        <ele>1541</ele>
        <time>2025-04-02T08:32:02Z</time>
      </trkpt>
      <trkpt lat="45.92681" lon="6.49987">
        <ele>1543</ele>
        <time>2025-04-02T08:32:20Z</time>
      </trkpt>
      <trkpt lat="45.9268" lon="6.50014">
        <ele>1549</ele>
        <time>2025-04-02T08:33:00Z</time>
      </trkpt>
      <trkpt lat="45.92679" lon="6.50029">
        <ele>1553</ele>
        <time>2025-04-02T08:33:16Z</time>
      </trkpt>
      <trkpt lat="45.92681" lon="6.50042">
        <ele>1554</ele>
        <time>2025-04-02T08:33:34Z</time>
      </trkpt>
      <trkpt lat="45.92689" lon="6.5005">
        <ele>1558</ele>
        <time>2025-04-02T08:33:50Z</time>
      </trkpt>
      <trkpt lat="45.92701" lon="6.50071">
        <ele>1561</ele>
        <time>2025-04-02T08:34:24Z</time>
      </trkpt>
      <trkpt lat="45.92696" lon="6.50082">
        <ele>1563</ele>
        <time>2025-04-02T08:34:48Z</time>
      </trkpt>
      <trkpt lat="45.92693" lon="6.50095">
        <ele>1567</ele>
        <time>2025-04-02T08:35:08Z</time>
      </trkpt>
      <trkpt lat="45.92698" lon="6.50105">
        <ele>1569</ele>
        <time>2025-04-02T08:35:24Z</time>
      </trkpt>
      <trkpt lat="45.92708" lon="6.50104">
        <ele>1570</ele>
        <time>2025-04-02T08:35:40Z</time>
      </trkpt>
      <trkpt lat="45.92718" lon="6.50102">
        <ele>1572</ele>
        <time>2025-04-02T08:35:52Z</time>
      </trkpt>
      <trkpt lat="45.92733" lon="6.50121">
        <ele>1574</ele>
        <time>2025-04-02T08:36:22Z</time>
      </trkpt>
      <trkpt lat="45.92737" lon="6.50134">
        <ele>1575</ele>
        <time>2025-04-02T08:36:36Z</time>
      </trkpt>
      <trkpt lat="45.92751" lon="6.50155">
        <ele>1579</ele>
        <time>2025-04-02T08:37:00Z</time>
      </trkpt>
      <trkpt lat="45.92757" lon="6.50166">
        <ele>1579</ele>
        <time>2025-04-02T08:37:16Z</time>
      </trkpt>
      <trkpt lat="45.92764" lon="6.50174">
        <ele>1581</ele>
        <time>2025-04-02T08:37:28Z</time>
      </trkpt>
      <trkpt lat="45.92771" lon="6.50183">
        <ele>1583</ele>
        <time>2025-04-02T08:37:44Z</time>
      </trkpt>
      <trkpt lat="45.92777" lon="6.50187">
        <ele>1584</ele>
        <time>2025-04-02T08:37:54Z</time>
      </trkpt>
      <trkpt lat="45.92781" lon="6.50191">
        <ele>1585</ele>
        <time>2025-04-02T08:38:03Z</time>
      </trkpt>
      <trkpt lat="45.92785" lon="6.50196">
        <ele>1585</ele>
        <time>2025-04-02T08:38:09Z</time>
      </trkpt>
      <trkpt lat="45.92788" lon="6.50203">
        <ele>1586</ele>
        <time>2025-04-02T08:38:13Z</time>
      </trkpt>
      <trkpt lat="45.9279" lon="6.50208">
        <ele>1586</ele>
        <time>2025-04-02T08:38:19Z</time>
      </trkpt>
      <trkpt lat="45.92792" lon="6.50214">
        <ele>1586</ele>
        <time>2025-04-02T08:38:29Z</time>
      </trkpt>
      <trkpt lat="45.92794" lon="6.50219">
        <ele>1586</ele>
        <time>2025-04-02T08:38:35Z</time>
      </trkpt>
      <trkpt lat="45.92805" lon="6.50239">
        <ele>1590</ele>
        <time>2025-04-02T08:39:11Z</time>
      </trkpt>
      <trkpt lat="45.9281" lon="6.50251">
        <ele>1591</ele>
        <time>2025-04-02T08:39:25Z</time>
      </trkpt>
      <trkpt lat="45.92814" lon="6.50263">
        <ele>1595</ele>
        <time>2025-04-02T08:39:45Z</time>
      </trkpt>
      <trkpt lat="45.92821" lon="6.50273">
        <ele>1596</ele>
        <time>2025-04-02T08:40:01Z</time>
      </trkpt>
      <trkpt lat="45.92816" lon="6.50284">
        <ele>1601</ele>
        <time>2025-04-02T08:40:25Z</time>
      </trkpt>
      <trkpt lat="45.92821" lon="6.50295">
        <ele>1602</ele>
        <time>2025-04-02T08:40:43Z</time>
      </trkpt>
      <trkpt lat="45.92831" lon="6.50298">
        <ele>1605</ele>
        <time>2025-04-02T08:41:03Z</time>
      </trkpt>
      <trkpt lat="45.9284" lon="6.50297">
        <ele>1607</ele>
        <time>2025-04-02T08:41:19Z</time>
      </trkpt>
      <trkpt lat="45.92844" lon="6.50309">
        <ele>1608</ele>
        <time>2025-04-02T08:41:39Z</time>
      </trkpt>
      <trkpt lat="45.92847" lon="6.50322">
        <ele>1614</ele>
        <time>2025-04-02T08:42:01Z</time>
      </trkpt>
      <trkpt lat="45.92852" lon="6.50333">
        <ele>1616</ele>
        <time>2025-04-02T08:42:19Z</time>
      </trkpt>
      <trkpt lat="45.92861" lon="6.5034">
        <ele>1618</ele>
        <time>2025-04-02T08:42:43Z</time>
      </trkpt>
      <trkpt lat="45.92867" lon="6.50352">
        <ele>1621</ele>
        <time>2025-04-02T08:42:59Z</time>
      </trkpt>
      <trkpt lat="45.9287" lon="6.50364">
        <ele>1623</ele>
        <time>2025-04-02T08:43:13Z</time>
      </trkpt>
      <trkpt lat="45.92884" lon="6.50384">
        <ele>1628</ele>
        <time>2025-04-02T08:43:53Z</time>
      </trkpt>
      <trkpt lat="45.92888" lon="6.50396">
        <ele>1630</ele>
        <time>2025-04-02T08:44:13Z</time>
      </trkpt>
      <trkpt lat="45.9288" lon="6.50401">
        <ele>1633</ele>
        <time>2025-04-02T08:44:37Z</time>
      </trkpt>
      <trkpt lat="45.92874" lon="6.50413">
        <ele>1636</ele>
        <time>2025-04-02T08:45:15Z</time>
      </trkpt>
      <trkpt lat="45.92866" lon="6.50418">
        <ele>1643</ele>
        <time>2025-04-02T08:45:37Z</time>
      </trkpt>
      <trkpt lat="45.92861" lon="6.5043">
        <ele>1644</ele>
        <time>2025-04-02T08:45:55Z</time>
      </trkpt>
      <trkpt lat="45.92853" lon="6.50435">
        <ele>1648</ele>
        <time>2025-04-02T08:46:13Z</time>
      </trkpt>
      <trkpt lat="45.92847" lon="6.50447">
        <ele>1649</ele>
        <time>2025-04-02T08:46:33Z</time>
      </trkpt>
      <trkpt lat="45.92853" lon="6.50459">
        <ele>1652</ele>
        <time>2025-04-02T08:47:01Z</time>
      </trkpt>
      <trkpt lat="45.92861" lon="6.50465">
        <ele>1655</ele>
        <time>2025-04-02T08:47:21Z</time>
      </trkpt>
      <trkpt lat="45.9287" lon="6.50469">
        <ele>1657</ele>
        <time>2025-04-02T08:47:39Z</time>
      </trkpt>
      <trkpt lat="45.92874" lon="6.50481">
        <ele>1660</ele>
        <time>2025-04-02T08:48:07Z</time>
      </trkpt>
      <trkpt lat="45.92884" lon="6.5048">
        <ele>1662</ele>
        <time>2025-04-02T08:48:23Z</time>
      </trkpt>
      <trkpt lat="45.92889" lon="6.50491">
        <ele>1666</ele>
        <time>2025-04-02T08:49:03Z</time>
      </trkpt>
      <trkpt lat="45.92899" lon="6.50495">
        <ele>1670</ele>
        <time>2025-04-02T08:49:17Z</time>
      </trkpt>
      <trkpt lat="45.9291" lon="6.50518">
        <ele>1672</ele>
        <time>2025-04-02T08:49:47Z</time>
      </trkpt>
      <trkpt lat="45.92916" lon="6.50529">
        <ele>1672</ele>
        <time>2025-04-02T08:50:01Z</time>
      </trkpt>
      <trkpt lat="45.92925" lon="6.50535">
        <ele>1673</ele>
        <time>2025-04-02T08:50:13Z</time>
      </trkpt>
      <trkpt lat="45.92931" lon="6.50545">
        <ele>1673</ele>
        <time>2025-04-02T08:50:29Z</time>
      </trkpt>
      <trkpt lat="45.92933" lon="6.50557">
        <ele>1672</ele>
        <time>2025-04-02T08:50:43Z</time>
      </trkpt>
      <trkpt lat="45.92935" lon="6.50564">
        <ele>1673</ele>
        <time>2025-04-02T08:50:55Z</time>
      </trkpt>
      <trkpt lat="45.92942" lon="6.50598">
        <ele>1669</ele>
        <time>2025-04-02T08:51:25Z</time>
      </trkpt>
      <trkpt lat="45.92947" lon="6.50605">
        <ele>1668</ele>
        <time>2025-04-02T08:51:33Z</time>
      </trkpt>
      <trkpt lat="45.92954" lon="6.50611">
        <ele>1668</ele>
        <time>2025-04-02T08:51:43Z</time>
      </trkpt>
      <trkpt lat="45.92969" lon="6.50629">
        <ele>1669</ele>
        <time>2025-04-02T08:52:07Z</time>
      </trkpt>
      <trkpt lat="45.92985" lon="6.50646">
        <ele>1671</ele>
        <time>2025-04-02T08:52:33Z</time>
      </trkpt>
      <trkpt lat="45.92992" lon="6.50655">
        <ele>1672</ele>
        <time>2025-04-02T08:52:45Z</time>
      </trkpt>
      <trkpt lat="45.93008" lon="6.50672">
        <ele>1675</ele>
        <time>2025-04-02T08:53:15Z</time>
      </trkpt>
      <trkpt lat="45.93021" lon="6.50693">
        <ele>1676</ele>
        <time>2025-04-02T08:53:41Z</time>
      </trkpt>
      <trkpt lat="45.93024" lon="6.50706">
        <ele>1678</ele>
        <time>2025-04-02T08:53:55Z</time>
      </trkpt>
      <trkpt lat="45.9303" lon="6.50718">
        <ele>1679</ele>
        <time>2025-04-02T08:54:11Z</time>
      </trkpt>
      <trkpt lat="45.9304" lon="6.50742">
        <ele>1684</ele>
        <time>2025-04-02T08:54:51Z</time>
      </trkpt>
      <trkpt lat="45.93051" lon="6.50765">
        <ele>1687</ele>
        <time>2025-04-02T08:55:17Z</time>
      </trkpt>
      <trkpt lat="45.93066" lon="6.50783">
        <ele>1688</ele>
        <time>2025-04-02T08:55:43Z</time>
      </trkpt>
      <trkpt lat="45.93069" lon="6.50788">
        <ele>1690</ele>
        <time>2025-04-02T08:56:19Z</time>
      </trkpt>
      <trkpt lat="45.93071" lon="6.50792">
        <ele>1690</ele>
        <time>2025-04-02T08:56:35Z</time>
      </trkpt>
      <trkpt lat="45.9308" lon="6.50805">
        <ele>1692</ele>
        <time>2025-04-02T08:56:53Z</time>
      </trkpt>
      <trkpt lat="45.93085" lon="6.50814">
        <ele>1693</ele>
        <time>2025-04-02T08:57:11Z</time>
      </trkpt>
      <trkpt lat="45.93089" lon="6.50826">
        <ele>1694</ele>
        <time>2025-04-02T08:57:21Z</time>
      </trkpt>
      <trkpt lat="45.93091" lon="6.50846">
        <ele>1696</ele>
        <time>2025-04-02T08:57:43Z</time>
      </trkpt>
      <trkpt lat="45.93095" lon="6.50858">
        <ele>1702</ele>
        <time>2025-04-02T08:58:05Z</time>
      </trkpt>
      <trkpt lat="45.931" lon="6.50872">
        <ele>1704</ele>
        <time>2025-04-02T08:58:26Z</time>
      </trkpt>
      <trkpt lat="45.93106" lon="6.50882">
        <ele>1706</ele>
        <time>2025-04-02T08:58:46Z</time>
      </trkpt>
      <trkpt lat="45.93106" lon="6.50896">
        <ele>1708</ele>
        <time>2025-04-02T08:59:08Z</time>
      </trkpt>
      <trkpt lat="45.93108" lon="6.50908">
        <ele>1714</ele>
        <time>2025-04-02T08:59:30Z</time>
      </trkpt>
      <trkpt lat="45.93107" lon="6.50922">
        <ele>1715</ele>
        <time>2025-04-02T08:59:50Z</time>
      </trkpt>
      <trkpt lat="45.93114" lon="6.50932">
        <ele>1720</ele>
        <time>2025-04-02T09:00:10Z</time>
      </trkpt>
      <trkpt lat="45.93121" lon="6.50942">
        <ele>1722</ele>
        <time>2025-04-02T09:00:30Z</time>
      </trkpt>
      <trkpt lat="45.93126" lon="6.50953">
        <ele>1726</ele>
        <time>2025-04-02T09:00:50Z</time>
      </trkpt>
      <trkpt lat="45.9313" lon="6.50965">
        <ele>1726</ele>
        <time>2025-04-02T09:01:12Z</time>
      </trkpt>
      <trkpt lat="45.93136" lon="6.5099">
        <ele>1731</ele>
        <time>2025-04-02T09:01:54Z</time>
      </trkpt>
      <trkpt lat="45.93132" lon="6.51003">
        <ele>1740</ele>
        <time>2025-04-02T09:03:02Z</time>
      </trkpt>
      <trkpt lat="45.93128" lon="6.51012">
        <ele>1742</ele>
        <time>2025-04-02T09:03:46Z</time>
      </trkpt>
      <trkpt lat="45.9312" lon="6.51006">
        <ele>1748</ele>
        <time>2025-04-02T09:04:08Z</time>
      </trkpt>
      <trkpt lat="45.93113" lon="6.51014">
        <ele>1750</ele>
        <time>2025-04-02T09:04:32Z</time>
      </trkpt>
      <trkpt lat="45.93114" lon="6.51028">
        <ele>1752</ele>
        <time>2025-04-02T09:04:50Z</time>
      </trkpt>
      <trkpt lat="45.93116" lon="6.51041">
        <ele>1758</ele>
        <time>2025-04-02T09:05:18Z</time>
      </trkpt>
      <trkpt lat="45.93115" lon="6.51055">
        <ele>1759</ele>
        <time>2025-04-02T09:05:44Z</time>
      </trkpt>
      <trkpt lat="45.93108" lon="6.51081">
        <ele>1765</ele>
        <time>2025-04-02T09:06:22Z</time>
      </trkpt>
      <trkpt lat="45.93108" lon="6.51094">
        <ele>1768</ele>
        <time>2025-04-02T09:06:46Z</time>
      </trkpt>
      <trkpt lat="45.93108" lon="6.51108">
        <ele>1773</ele>
        <time>2025-04-02T09:07:06Z</time>
      </trkpt>
      <trkpt lat="45.93108" lon="6.51121">
        <ele>1776</ele>
        <time>2025-04-02T09:07:24Z</time>
      </trkpt>
      <trkpt lat="45.9311" lon="6.51134">
        <ele>1779</ele>
        <time>2025-04-02T09:07:50Z</time>
      </trkpt>
      <trkpt lat="45.93107" lon="6.51147">
        <ele>1783</ele>
        <time>2025-04-02T09:08:12Z</time>
      </trkpt>
      <trkpt lat="45.93104" lon="6.5116">
        <ele>1787</ele>
        <time>2025-04-02T09:08:32Z</time>
      </trkpt>
      <trkpt lat="45.93103" lon="6.51173">
        <ele>1788</ele>
        <time>2025-04-02T09:08:52Z</time>
      </trkpt>
      <trkpt lat="45.93094" lon="6.51177">
        <ele>1792</ele>
        <time>2025-04-02T09:09:20Z</time>
      </trkpt>
      <trkpt lat="45.93084" lon="6.5118">
        <ele>1800</ele>
        <time>2025-04-02T09:09:44Z</time>
      </trkpt>
      <trkpt lat="45.93075" lon="6.51183">
        <ele>1802</ele>
        <time>2025-04-02T09:10:04Z</time>
      </trkpt>
      <trkpt lat="45.93066" lon="6.51188">
        <ele>1807</ele>
        <time>2025-04-02T09:10:28Z</time>
      </trkpt>
      <trkpt lat="45.93058" lon="6.51192">
        <ele>1808</ele>
        <time>2025-04-02T09:10:52Z</time>
      </trkpt>
      <trkpt lat="45.9305" lon="6.51199">
        <ele>1812</ele>
        <time>2025-04-02T09:11:20Z</time>
      </trkpt>
      <trkpt lat="45.93042" lon="6.51205">
        <ele>1814</ele>
        <time>2025-04-02T09:11:42Z</time>
      </trkpt>
      <trkpt lat="45.93027" lon="6.51224">
        <ele>1821</ele>
        <time>2025-04-02T09:12:28Z</time>
      </trkpt>
      <trkpt lat="45.93022" lon="6.51235">
        <ele>1826</ele>
        <time>2025-04-02T09:12:50Z</time>
      </trkpt>
      <trkpt lat="45.93016" lon="6.5124">
        <ele>1827</ele>
        <time>2025-04-02T09:13:03Z</time>
      </trkpt>
      <trkpt lat="45.93014" lon="6.51246">
        <ele>1828</ele>
        <time>2025-04-02T09:13:14Z</time>
      </trkpt>
      <trkpt lat="45.93009" lon="6.51254">
        <ele>1832</ele>
        <time>2025-04-02T09:13:30Z</time>
      </trkpt>
      <trkpt lat="45.93005" lon="6.51262">
        <ele>1835</ele>
        <time>2025-04-02T09:13:52Z</time>
      </trkpt>
      <trkpt lat="45.93002" lon="6.51268">
        <ele>1836</ele>
        <time>2025-04-02T09:14:00Z</time>
      </trkpt>
      <trkpt lat="45.92997" lon="6.51279">
        <ele>1838</ele>
        <time>2025-04-02T09:14:18Z</time>
      </trkpt>
      <trkpt lat="45.92994" lon="6.51293">
        <ele>1842</ele>
        <time>2025-04-02T09:14:36Z</time>
      </trkpt>
      <trkpt lat="45.92989" lon="6.51305">
        <ele>1842</ele>
        <time>2025-04-02T09:19:20Z</time>
      </trkpt>
      <trkpt lat="45.92984" lon="6.51318">
        <ele>1839</ele>
        <time>2025-04-02T09:22:17Z</time>
      </trkpt>
      <trkpt lat="45.9298" lon="6.51331">
        <ele>1843</ele>
        <time>2025-04-02T09:22:39Z</time>
      </trkpt>
      <trkpt lat="45.92975" lon="6.51358">
        <ele>1844</ele>
        <time>2025-04-02T09:23:09Z</time>
      </trkpt>
      <trkpt lat="45.92971" lon="6.51371">
        <ele>1845</ele>
        <time>2025-04-02T09:23:31Z</time>
      </trkpt>
      <trkpt lat="45.92985" lon="6.51388">
        <ele>1851</ele>
        <time>2025-04-02T09:24:13Z</time>
      </trkpt>
      <trkpt lat="45.92994" lon="6.51391">
        <ele>1852</ele>
        <time>2025-04-02T09:24:33Z</time>
      </trkpt>
      <trkpt lat="45.93001" lon="6.514">
        <ele>1855</ele>
        <time>2025-04-02T09:24:57Z</time>
      </trkpt>
      <trkpt lat="45.92994" lon="6.5141">
        <ele>1857</ele>
        <time>2025-04-02T09:25:29Z</time>
      </trkpt>
      <trkpt lat="45.92986" lon="6.51415">
        <ele>1863</ele>
        <time>2025-04-02T09:25:55Z</time>
      </trkpt>
      <trkpt lat="45.92981" lon="6.51425">
        <ele>1867</ele>
        <time>2025-04-02T09:26:17Z</time>
      </trkpt>
      <trkpt lat="45.92974" lon="6.51434">
        <ele>1870</ele>
        <time>2025-04-02T09:26:47Z</time>
      </trkpt>
      <trkpt lat="45.92966" lon="6.51441">
        <ele>1873</ele>
        <time>2025-04-02T09:27:15Z</time>
      </trkpt>
      <trkpt lat="45.92965" lon="6.51455">
        <ele>1874</ele>
        <time>2025-04-02T09:27:37Z</time>
      </trkpt>
      <trkpt lat="45.92956" lon="6.51455">
        <ele>1880</ele>
        <time>2025-04-02T09:28:13Z</time>
      </trkpt>
      <trkpt lat="45.92955" lon="6.51468">
        <ele>1882</ele>
        <time>2025-04-02T09:28:39Z</time>
      </trkpt>
      <trkpt lat="45.92944" lon="6.51472">
        <ele>1889</ele>
        <time>2025-04-02T09:29:11Z</time>
      </trkpt>
      <trkpt lat="45.92937" lon="6.51481">
        <ele>1891</ele>
        <time>2025-04-02T09:29:39Z</time>
      </trkpt>
      <trkpt lat="45.92941" lon="6.51494">
        <ele>1891</ele>
        <time>2025-04-02T09:29:55Z</time>
      </trkpt>
      <trkpt lat="45.92943" lon="6.51507">
        <ele>1894</ele>
        <time>2025-04-02T09:30:13Z</time>
      </trkpt>
      <trkpt lat="45.92943" lon="6.51521">
        <ele>1897</ele>
        <time>2025-04-02T09:30:37Z</time>
      </trkpt>
      <trkpt lat="45.92945" lon="6.51535">
        <ele>1900</ele>
        <time>2025-04-02T09:30:57Z</time>
      </trkpt>
      <trkpt lat="45.92945" lon="6.51548">
        <ele>1902</ele>
        <time>2025-04-02T09:31:13Z</time>
      </trkpt>
      <trkpt lat="45.92937" lon="6.51552">
        <ele>1905</ele>
        <time>2025-04-02T09:31:35Z</time>
      </trkpt>
      <trkpt lat="45.92927" lon="6.51553">
        <ele>1910</ele>
        <time>2025-04-02T09:31:53Z</time>
      </trkpt>
      <trkpt lat="45.92919" lon="6.51557">
        <ele>1913</ele>
        <time>2025-04-02T09:32:15Z</time>
      </trkpt>
      <trkpt lat="45.92909" lon="6.5156">
        <ele>1916</ele>
        <time>2025-04-02T09:32:39Z</time>
      </trkpt>
      <trkpt lat="45.929" lon="6.51565">
        <ele>1918</ele>
        <time>2025-04-02T09:32:57Z</time>
      </trkpt>
      <trkpt lat="45.92891" lon="6.51566">
        <ele>1923</ele>
        <time>2025-04-02T09:33:17Z</time>
      </trkpt>
      <trkpt lat="45.92883" lon="6.51574">
        <ele>1926</ele>
        <time>2025-04-02T09:33:37Z</time>
      </trkpt>
      <trkpt lat="45.92875" lon="6.51581">
        <ele>1930</ele>
        <time>2025-04-02T09:33:55Z</time>
      </trkpt>
      <trkpt lat="45.92871" lon="6.51595">
        <ele>1932</ele>
        <time>2025-04-02T09:34:29Z</time>
      </trkpt>
      <trkpt lat="45.92877" lon="6.51606">
        <ele>1934</ele>
        <time>2025-04-02T09:34:47Z</time>
      </trkpt>
      <trkpt lat="45.92883" lon="6.51617">
        <ele>1936</ele>
        <time>2025-04-02T09:35:13Z</time>
      </trkpt>
      <trkpt lat="45.92888" lon="6.51627">
        <ele>1940</ele>
        <time>2025-04-02T09:35:37Z</time>
      </trkpt>
      <trkpt lat="45.92879" lon="6.51632">
        <ele>1945</ele>
        <time>2025-04-02T09:36:17Z</time>
      </trkpt>
      <trkpt lat="45.9287" lon="6.51637">
        <ele>1951</ele>
        <time>2025-04-02T09:36:41Z</time>
      </trkpt>
      <trkpt lat="45.92872" lon="6.51649">
        <ele>1953</ele>
        <time>2025-04-02T09:37:11Z</time>
      </trkpt>
      <trkpt lat="45.92863" lon="6.51651">
        <ele>1956</ele>
        <time>2025-04-02T09:37:47Z</time>
      </trkpt>
      <trkpt lat="45.92854" lon="6.51644">
        <ele>1958</ele>
        <time>2025-04-02T09:38:09Z</time>
      </trkpt>
      <trkpt lat="45.92854" lon="6.51657">
        <ele>1965</ele>
        <time>2025-04-02T09:38:35Z</time>
      </trkpt>
      <trkpt lat="45.92856" lon="6.5167">
        <ele>1968</ele>
        <time>2025-04-02T09:38:59Z</time>
      </trkpt>
      <trkpt lat="45.92856" lon="6.51677">
        <ele>1970</ele>
        <time>2025-04-02T09:39:33Z</time>
      </trkpt>
      <trkpt lat="45.92843" lon="6.51666">
        <ele>1976</ele>
        <time>2025-04-02T09:40:03Z</time>
      </trkpt>
      <trkpt lat="45.92842" lon="6.51672">
        <ele>1978</ele>
        <time>2025-04-02T09:40:15Z</time>
      </trkpt>
      <trkpt lat="45.92841" lon="6.51678">
        <ele>1979</ele>
        <time>2025-04-02T09:40:25Z</time>
      </trkpt>
      <trkpt lat="45.92843" lon="6.51696">
        <ele>1980</ele>
        <time>2025-04-02T09:40:55Z</time>
      </trkpt>
      <trkpt lat="45.92834" lon="6.51694">
        <ele>1982</ele>
        <time>2025-04-02T09:41:23Z</time>
      </trkpt>
      <trkpt lat="45.92824" lon="6.51686">
        <ele>1990</ele>
        <time>2025-04-02T09:41:51Z</time>
      </trkpt>
      <trkpt lat="45.92821" lon="6.51684">
        <ele>1991</ele>
        <time>2025-04-02T09:41:59Z</time>
      </trkpt>
      <trkpt lat="45.92817" lon="6.51684">
        <ele>1993</ele>
        <time>2025-04-02T09:42:07Z</time>
      </trkpt>
      <trkpt lat="45.92814" lon="6.51688">
        <ele>1994</ele>
        <time>2025-04-02T09:42:15Z</time>
      </trkpt>
      <trkpt lat="45.92812" lon="6.51692">
        <ele>1995</ele>
        <time>2025-04-02T09:42:23Z</time>
      </trkpt>
      <trkpt lat="45.9281" lon="6.51698">
        <ele>1995</ele>
        <time>2025-04-02T09:42:31Z</time>
      </trkpt>
      <trkpt lat="45.92803" lon="6.51708">
        <ele>1996</ele>
        <time>2025-04-02T09:42:55Z</time>
      </trkpt>
      <trkpt lat="45.92794" lon="6.51714">
        <ele>2001</ele>
        <time>2025-04-02T09:43:17Z</time>
      </trkpt>
      <trkpt lat="45.92788" lon="6.5172">
        <ele>2004</ele>
        <time>2025-04-02T09:43:35Z</time>
      </trkpt>
      <trkpt lat="45.92774" lon="6.51729">
        <ele>2007</ele>
        <time>2025-04-02T09:44:11Z</time>
      </trkpt>
      <trkpt lat="45.9277" lon="6.51731">
        <ele>2009</ele>
        <time>2025-04-02T09:44:21Z</time>
      </trkpt>
      <trkpt lat="45.92762" lon="6.51739">
        <ele>2012</ele>
        <time>2025-04-02T09:44:48Z</time>
      </trkpt>
      <trkpt lat="45.92755" lon="6.51747">
        <ele>2015</ele>
        <time>2025-04-02T09:45:10Z</time>
      </trkpt>
      <trkpt lat="45.92754" lon="6.5176">
        <ele>2017</ele>
        <time>2025-04-02T09:45:50Z</time>
      </trkpt>
      <trkpt lat="45.9276" lon="6.5177">
        <ele>2020</ele>
        <time>2025-04-02T09:46:14Z</time>
      </trkpt>
      <trkpt lat="45.92766" lon="6.51779">
        <ele>2022</ele>
        <time>2025-04-02T09:46:44Z</time>
      </trkpt>
      <trkpt lat="45.92762" lon="6.5179">
        <ele>2026</ele>
        <time>2025-04-02T09:47:42Z</time>
      </trkpt>
      <trkpt lat="45.92767" lon="6.51801">
        <ele>2033</ele>
        <time>2025-04-02T09:48:08Z</time>
      </trkpt>
      <trkpt lat="45.92761" lon="6.51806">
        <ele>2034</ele>
        <time>2025-04-02T09:48:38Z</time>
      </trkpt>
      <trkpt lat="45.92758" lon="6.51806">
        <ele>2035</ele>
        <time>2025-04-02T09:48:48Z</time>
      </trkpt>
      <trkpt lat="45.92753" lon="6.51806">
        <ele>2035</ele>
        <time>2025-04-02T09:48:54Z</time>
      </trkpt>
      <trkpt lat="45.92749" lon="6.51806">
        <ele>2038</ele>
        <time>2025-04-02T09:49:08Z</time>
      </trkpt>
      <trkpt lat="45.92748" lon="6.51812">
        <ele>2040</ele>
        <time>2025-04-02T09:49:20Z</time>
      </trkpt>
      <trkpt lat="45.9275" lon="6.51817">
        <ele>2043</ele>
        <time>2025-04-02T09:49:34Z</time>
      </trkpt>
      <trkpt lat="45.92756" lon="6.51829">
        <ele>2046</ele>
        <time>2025-04-02T09:50:00Z</time>
      </trkpt>
      <trkpt lat="45.92764" lon="6.51836">
        <ele>2047</ele>
        <time>2025-04-02T09:50:26Z</time>
      </trkpt>
      <trkpt lat="45.92763" lon="6.51841">
        <ele>2050</ele>
        <time>2025-04-02T09:50:49Z</time>
      </trkpt>
      <trkpt lat="45.92759" lon="6.51839">
        <ele>2049</ele>
        <time>2025-04-02T09:50:55Z</time>
      </trkpt>
      <trkpt lat="45.92752" lon="6.51842">
        <ele>2054</ele>
        <time>2025-04-02T09:51:11Z</time>
      </trkpt>
      <trkpt lat="45.92749" lon="6.51842">
        <ele>2057</ele>
        <time>2025-04-02T09:51:23Z</time>
      </trkpt>
      <trkpt lat="45.92745" lon="6.51842">
        <ele>2058</ele>
        <time>2025-04-02T09:51:31Z</time>
      </trkpt>
      <trkpt lat="45.92737" lon="6.5184">
        <ele>2061</ele>
        <time>2025-04-02T09:51:53Z</time>
      </trkpt>
      <trkpt lat="45.92734" lon="6.51839">
        <ele>2064</ele>
        <time>2025-04-02T09:52:05Z</time>
      </trkpt>
      <trkpt lat="45.92719" lon="6.5183">
        <ele>2070</ele>
        <time>2025-04-02T09:52:41Z</time>
      </trkpt>
      <trkpt lat="45.9271" lon="6.51822">
        <ele>2073</ele>
        <time>2025-04-02T09:53:11Z</time>
      </trkpt>
      <trkpt lat="45.92704" lon="6.51817">
        <ele>2075</ele>
        <time>2025-04-02T09:53:31Z</time>
      </trkpt>
      <trkpt lat="45.92697" lon="6.51813">
        <ele>2078</ele>
        <time>2025-04-02T09:53:49Z</time>
      </trkpt>
      <trkpt lat="45.92689" lon="6.51815">
        <ele>2080</ele>
        <time>2025-04-02T09:54:19Z</time>
      </trkpt>
      <trkpt lat="45.92664" lon="6.51819">
        <ele>2081</ele>
        <time>2025-04-02T09:54:53Z</time>
      </trkpt>
      <trkpt lat="45.92657" lon="6.51819">
        <ele>2083</ele>
        <time>2025-04-02T09:55:05Z</time>
      </trkpt>
      <trkpt lat="45.92654" lon="6.5182">
        <ele>2084</ele>
        <time>2025-04-02T09:55:13Z</time>
      </trkpt>
      <trkpt lat="45.92652" lon="6.51826">
        <ele>2085</ele>
        <time>2025-04-02T09:55:21Z</time>
      </trkpt>
      <trkpt lat="45.92652" lon="6.51832">
        <ele>2085</ele>
        <time>2025-04-02T09:55:29Z</time>
      </trkpt>
      <trkpt lat="45.92649" lon="6.51834">
        <ele>2086</ele>
        <time>2025-04-02T09:55:41Z</time>
      </trkpt>
      <trkpt lat="45.92645" lon="6.51835">
        <ele>2088</ele>
        <time>2025-04-02T09:55:49Z</time>
      </trkpt>
      <trkpt lat="45.9263" lon="6.51834">
        <ele>2095</ele>
        <time>2025-04-02T09:56:23Z</time>
      </trkpt>
      <trkpt lat="45.92625" lon="6.51834">
        <ele>2097</ele>
        <time>2025-04-02T09:56:33Z</time>
      </trkpt>
      <trkpt lat="45.92622" lon="6.51836">
        <ele>2098</ele>
        <time>2025-04-02T09:56:43Z</time>
      </trkpt>
      <trkpt lat="45.92621" lon="6.51847">
        <ele>2098</ele>
        <time>2025-04-02T09:56:59Z</time>
      </trkpt>
      <trkpt lat="45.92621" lon="6.51852">
        <ele>2098</ele>
        <time>2025-04-02T09:57:09Z</time>
      </trkpt>
      <trkpt lat="45.92621" lon="6.51857">
        <ele>2098</ele>
        <time>2025-04-02T09:57:17Z</time>
      </trkpt>
      <trkpt lat="45.92617" lon="6.5186">
        <ele>2099</ele>
        <time>2025-04-02T09:57:27Z</time>
      </trkpt>
      <trkpt lat="45.92614" lon="6.51858">
        <ele>2100</ele>
        <time>2025-04-02T09:57:33Z</time>
      </trkpt>
      <trkpt lat="45.92611" lon="6.51854">
        <ele>2102</ele>
        <time>2025-04-02T09:57:41Z</time>
      </trkpt>
      <trkpt lat="45.92608" lon="6.51851">
        <ele>2104</ele>
        <time>2025-04-02T09:57:47Z</time>
      </trkpt>
      <trkpt lat="45.92605" lon="6.51848">
        <ele>2104</ele>
        <time>2025-04-02T09:57:55Z</time>
      </trkpt>
      <trkpt lat="45.92599" lon="6.5184">
        <ele>2108</ele>
        <time>2025-04-02T09:58:11Z</time>
      </trkpt>
      <trkpt lat="45.92597" lon="6.51836">
        <ele>2109</ele>
        <time>2025-04-02T09:58:23Z</time>
      </trkpt>
      <trkpt lat="45.92593" lon="6.51839">
        <ele>2109</ele>
        <time>2025-04-02T09:58:39Z</time>
      </trkpt>
      <trkpt lat="45.92591" lon="6.51843">
        <ele>2110</ele>
        <time>2025-04-02T09:58:47Z</time>
      </trkpt>
      <trkpt lat="45.9259" lon="6.51857">
        <ele>2111</ele>
        <time>2025-04-02T09:59:11Z</time>
      </trkpt>
      <trkpt lat="45.92585" lon="6.51861">
        <ele>2118</ele>
        <time>2025-04-02T09:59:53Z</time>
      </trkpt>
      <trkpt lat="45.9258" lon="6.51855">
        <ele>2122</ele>
        <time>2025-04-02T10:00:11Z</time>
      </trkpt>
      <trkpt lat="45.92577" lon="6.5185">
        <ele>2123</ele>
        <time>2025-04-02T10:00:23Z</time>
      </trkpt>
      <trkpt lat="45.92573" lon="6.51841">
        <ele>2126</ele>
        <time>2025-04-02T10:00:45Z</time>
      </trkpt>
      <trkpt lat="45.9257" lon="6.51837">
        <ele>2129</ele>
        <time>2025-04-02T10:00:55Z</time>
      </trkpt>
      <trkpt lat="45.92566" lon="6.51835">
        <ele>2130</ele>
        <time>2025-04-02T10:01:05Z</time>
      </trkpt>
      <trkpt lat="45.92552" lon="6.51836">
        <ele>2134</ele>
        <time>2025-04-02T10:01:41Z</time>
      </trkpt>
      <trkpt lat="45.92549" lon="6.51838">
        <ele>2134</ele>
        <time>2025-04-02T10:01:51Z</time>
      </trkpt>
      <trkpt lat="45.92542" lon="6.51833">
        <ele>2137</ele>
        <time>2025-04-02T10:02:09Z</time>
      </trkpt>
      <trkpt lat="45.92539" lon="6.5183">
        <ele>2138</ele>
        <time>2025-04-02T10:02:23Z</time>
      </trkpt>
      <trkpt lat="45.92535" lon="6.51826">
        <ele>2141</ele>
        <time>2025-04-02T10:02:33Z</time>
      </trkpt>
      <trkpt lat="45.92532" lon="6.51824">
        <ele>2142</ele>
        <time>2025-04-02T10:02:41Z</time>
      </trkpt>
      <trkpt lat="45.92529" lon="6.5182">
        <ele>2145</ele>
        <time>2025-04-02T10:02:53Z</time>
      </trkpt>
      <trkpt lat="45.92526" lon="6.51822">
        <ele>2145</ele>
        <time>2025-04-02T10:03:35Z</time>
      </trkpt>
      <trkpt lat="45.92522" lon="6.51823">
        <ele>2146</ele>
        <time>2025-04-02T10:03:43Z</time>
      </trkpt>
      <trkpt lat="45.92519" lon="6.51825">
        <ele>2146</ele>
        <time>2025-04-02T10:03:51Z</time>
      </trkpt>
      <trkpt lat="45.92517" lon="6.51831">
        <ele>2147</ele>
        <time>2025-04-02T10:04:01Z</time>
      </trkpt>
      <trkpt lat="45.92515" lon="6.51836">
        <ele>2148</ele>
        <time>2025-04-02T10:04:11Z</time>
      </trkpt>
      <trkpt lat="45.92507" lon="6.51857">
        <ele>2151</ele>
        <time>2025-04-02T10:04:55Z</time>
      </trkpt>
      <trkpt lat="45.92504" lon="6.5187">
        <ele>2154</ele>
        <time>2025-04-02T10:05:17Z</time>
      </trkpt>
      <trkpt lat="45.92503" lon="6.51883">
        <ele>2155</ele>
        <time>2025-04-02T10:05:37Z</time>
      </trkpt>
      <trkpt lat="45.925" lon="6.51895">
        <ele>2159</ele>
        <time>2025-04-02T10:05:57Z</time>
      </trkpt>
      <trkpt lat="45.92498" lon="6.51908">
        <ele>2161</ele>
        <time>2025-04-02T10:06:21Z</time>
      </trkpt>
      <trkpt lat="45.92496" lon="6.51922">
        <ele>2164</ele>
        <time>2025-04-02T10:06:41Z</time>
      </trkpt>
      <trkpt lat="45.92494" lon="6.51935">
        <ele>2168</ele>
        <time>2025-04-02T10:07:05Z</time>
      </trkpt>
      <trkpt lat="45.92491" lon="6.51948">
        <ele>2171</ele>
        <time>2025-04-02T10:07:25Z</time>
      </trkpt>
      <trkpt lat="45.92487" lon="6.5196">
        <ele>2173</ele>
        <time>2025-04-02T10:07:47Z</time>
      </trkpt>
      <trkpt lat="45.92486" lon="6.51973">
        <ele>2177</ele>
        <time>2025-04-02T10:08:15Z</time>
      </trkpt>
      <trkpt lat="45.92484" lon="6.51986">
        <ele>2179</ele>
        <time>2025-04-02T10:08:39Z</time>
      </trkpt>
      <trkpt lat="45.92478" lon="6.52011">
        <ele>2186</ele>
        <time>2025-04-02T10:09:19Z</time>
      </trkpt>
      <trkpt lat="45.92474" lon="6.52025">
        <ele>2191</ele>
        <time>2025-04-02T10:09:39Z</time>
      </trkpt>
      <trkpt lat="45.9247" lon="6.52037">
        <ele>2193</ele>
        <time>2025-04-02T10:10:01Z</time>
      </trkpt>
      <trkpt lat="45.92467" lon="6.52049">
        <ele>2198</ele>
        <time>2025-04-02T10:10:25Z</time>
      </trkpt>
      <trkpt lat="45.92463" lon="6.52062">
        <ele>2200</ele>
        <time>2025-04-02T10:10:47Z</time>
      </trkpt>
      <trkpt lat="45.92458" lon="6.52073">
        <ele>2204</ele>
        <time>2025-04-02T10:11:05Z</time>
      </trkpt>
      <trkpt lat="45.92455" lon="6.52085">
        <ele>2204</ele>
        <time>2025-04-02T10:11:21Z</time>
      </trkpt>
      <trkpt lat="45.92453" lon="6.52098">
        <ele>2204</ele>
        <time>2025-04-02T10:11:41Z</time>
      </trkpt>
      <trkpt lat="45.92449" lon="6.5211">
        <ele>2205</ele>
        <time>2025-04-02T10:11:57Z</time>
      </trkpt>
      <trkpt lat="45.92442" lon="6.52137">
        <ele>2211</ele>
        <time>2025-04-02T10:12:33Z</time>
      </trkpt>
      <trkpt lat="45.9244" lon="6.52151">
        <ele>2213</ele>
        <time>2025-04-02T10:18:28Z</time>
      </trkpt>
      <trkpt lat="45.92439" lon="6.52177">
        <ele>2213</ele>
        <time>2025-04-02T10:19:20Z</time>
      </trkpt>
      <trkpt lat="45.92441" lon="6.52205">
        <ele>2214</ele>
        <time>2025-04-02T10:19:50Z</time>
      </trkpt>
      <trkpt lat="45.92441" lon="6.5222">
        <ele>2214</ele>
        <time>2025-04-02T10:20:04Z</time>
      </trkpt>
      <trkpt lat="45.9244" lon="6.52248">
        <ele>2218</ele>
        <time>2025-04-02T10:20:36Z</time>
      </trkpt>
      <trkpt lat="45.92437" lon="6.52257">
        <ele>2219</ele>
        <time>2025-04-02T10:20:47Z</time>
      </trkpt>
      <trkpt lat="45.92439" lon="6.52287">
        <ele>2225</ele>
        <time>2025-04-02T10:21:22Z</time>
      </trkpt>
      <trkpt lat="45.92439" lon="6.52293">
        <ele>2225</ele>
        <time>2025-04-02T10:21:32Z</time>
      </trkpt>
      <trkpt lat="45.92438" lon="6.52304">
        <ele>2226</ele>
        <time>2025-04-02T10:21:44Z</time>
      </trkpt>
      <trkpt lat="45.92438" lon="6.52317">
        <ele>2229</ele>
        <time>2025-04-02T10:22:04Z</time>
      </trkpt>
      <trkpt lat="45.92437" lon="6.52331">
        <ele>2229</ele>
        <time>2025-04-02T10:22:22Z</time>
      </trkpt>
      <trkpt lat="45.92439" lon="6.52344">
        <ele>2230</ele>
        <time>2025-04-02T10:22:42Z</time>
      </trkpt>
      <trkpt lat="45.92447" lon="6.52352">
        <ele>2233</ele>
        <time>2025-04-02T10:23:04Z</time>
      </trkpt>
      <trkpt lat="45.92453" lon="6.52362">
        <ele>2240</ele>
        <time>2025-04-02T10:23:24Z</time>
      </trkpt>
      <trkpt lat="45.92458" lon="6.52375">
        <ele>2243</ele>
        <time>2025-04-02T10:23:52Z</time>
      </trkpt>
      <trkpt lat="45.92464" lon="6.524">
        <ele>2250</ele>
        <time>2025-04-02T10:24:44Z</time>
      </trkpt>
      <trkpt lat="45.92465" lon="6.52421">
        <ele>2252</ele>
        <time>2025-04-02T10:25:25Z</time>
      </trkpt>
      <trkpt lat="45.92466" lon="6.52437">
        <ele>2261</ele>
        <time>2025-04-02T10:25:53Z</time>
      </trkpt>
      <trkpt lat="45.92466" lon="6.52442">
        <ele>2263</ele>
        <time>2025-04-02T10:26:01Z</time>
      </trkpt>
      <trkpt lat="45.92467" lon="6.52462">
        <ele>2265</ele>
        <time>2025-04-02T10:26:31Z</time>
      </trkpt>
      <trkpt lat="45.92467" lon="6.52475">
        <ele>2268</ele>
        <time>2025-04-02T10:26:49Z</time>
      </trkpt>
      <trkpt lat="45.92465" lon="6.52488">
        <ele>2271</ele>
        <time>2025-04-02T10:27:11Z</time>
      </trkpt>
      <trkpt lat="45.92463" lon="6.52502">
        <ele>2275</ele>
        <time>2025-04-02T10:28:05Z</time>
      </trkpt>
      <trkpt lat="45.92462" lon="6.52516">
        <ele>2275</ele>
        <time>2025-04-02T10:28:23Z</time>
      </trkpt>
      <trkpt lat="45.92459" lon="6.5253">
        <ele>2276</ele>
        <time>2025-04-02T10:28:41Z</time>
      </trkpt>
      <trkpt lat="45.92457" lon="6.52543">
        <ele>2278</ele>
        <time>2025-04-02T10:29:01Z</time>
      </trkpt>
      <trkpt lat="45.92453" lon="6.52554">
        <ele>2283</ele>
        <time>2025-04-02T10:29:29Z</time>
      </trkpt>
      <trkpt lat="45.92451" lon="6.52567">
        <ele>2286</ele>
        <time>2025-04-02T10:29:55Z</time>
      </trkpt>
      <trkpt lat="45.92443" lon="6.52592">
        <ele>2294</ele>
        <time>2025-04-02T10:30:43Z</time>
      </trkpt>
      <trkpt lat="45.9244" lon="6.52604">
        <ele>2297</ele>
        <time>2025-04-02T10:31:09Z</time>
      </trkpt>
      <trkpt lat="45.92439" lon="6.52617">
        <ele>2298</ele>
        <time>2025-04-02T10:31:31Z</time>
      </trkpt>
      <trkpt lat="45.92439" lon="6.52631">
        <ele>2301</ele>
        <time>2025-04-02T10:31:53Z</time>
      </trkpt>
      <trkpt lat="45.92438" lon="6.52644">
        <ele>2302</ele>
        <time>2025-04-02T10:32:17Z</time>
      </trkpt>
      <trkpt lat="45.92429" lon="6.52662">
        <ele>2308</ele>
        <time>2025-04-02T10:32:53Z</time>
      </trkpt>
      <trkpt lat="45.92426" lon="6.52666">
        <ele>2311</ele>
        <time>2025-04-02T10:33:03Z</time>
      </trkpt>
      <trkpt lat="45.92424" lon="6.5267">
        <ele>2313</ele>
        <time>2025-04-02T10:33:13Z</time>
      </trkpt>
      <trkpt lat="45.92425" lon="6.52675">
        <ele>2316</ele>
        <time>2025-04-02T10:33:43Z</time>
      </trkpt>
      <trkpt lat="45.92423" lon="6.52679">
        <ele>2319</ele>
        <time>2025-04-02T10:34:07Z</time>
      </trkpt>
      <trkpt lat="45.92419" lon="6.52683">
        <ele>2321</ele>
        <time>2025-04-02T10:34:21Z</time>
      </trkpt>
      <trkpt lat="45.9242" lon="6.52688">
        <ele>2323</ele>
        <time>2025-04-02T10:34:47Z</time>
      </trkpt>
      <trkpt lat="45.92427" lon="6.5269">
        <ele>2323</ele>
        <time>2025-04-02T10:35:05Z</time>
      </trkpt>
      <trkpt lat="45.92426" lon="6.52696">
        <ele>2324</ele>
        <time>2025-04-02T10:35:39Z</time>
      </trkpt>
      <trkpt lat="45.92419" lon="6.52701">
        <ele>2329</ele>
        <time>2025-04-02T10:35:57Z</time>
      </trkpt>
      <trkpt lat="45.92411" lon="6.52702">
        <ele>2331</ele>
        <time>2025-04-02T10:36:13Z</time>
      </trkpt>
      <trkpt lat="45.92404" lon="6.52702">
        <ele>2334</ele>
        <time>2025-04-02T10:36:33Z</time>
      </trkpt>
      <trkpt lat="45.92396" lon="6.52701">
        <ele>2337</ele>
        <time>2025-04-02T10:36:51Z</time>
      </trkpt>
      <trkpt lat="45.92403" lon="6.52725">
        <ele>2338</ele>
        <time>2025-04-02T10:37:33Z</time>
      </trkpt>
      <trkpt lat="45.92407" lon="6.52737">
        <ele>2342</ele>
        <time>2025-04-02T10:37:55Z</time>
      </trkpt>
      <trkpt lat="45.92412" lon="6.52748">
        <ele>2344</ele>
        <time>2025-04-02T10:38:19Z</time>
      </trkpt>
      <trkpt lat="45.9241" lon="6.52762">
        <ele>2348</ele>
        <time>2025-04-02T10:38:41Z</time>
      </trkpt>
      <trkpt lat="45.92411" lon="6.52789">
        <ele>2351</ele>
        <time>2025-04-02T10:39:23Z</time>
      </trkpt>
      <trkpt lat="45.92412" lon="6.52802">
        <ele>2352</ele>
        <time>2025-04-02T10:39:47Z</time>
      </trkpt>
      <trkpt lat="45.92417" lon="6.52813">
        <ele>2355</ele>
        <time>2025-04-02T10:40:09Z</time>
      </trkpt>
      <trkpt lat="45.92423" lon="6.52822">
        <ele>2356</ele>
        <time>2025-04-02T10:40:35Z</time>
      </trkpt>
      <trkpt lat="45.9242" lon="6.52834">
        <ele>2361</ele>
        <time>2025-04-02T10:41:02Z</time>
      </trkpt>
      <trkpt lat="45.92415" lon="6.52846">
        <ele>2364</ele>
        <time>2025-04-02T10:41:34Z</time>
      </trkpt>
      <trkpt lat="45.92406" lon="6.52849">
        <ele>2371</ele>
        <time>2025-04-02T10:41:58Z</time>
      </trkpt>
      <trkpt lat="45.92397" lon="6.52849">
        <ele>2373</ele>
        <time>2025-04-02T10:42:24Z</time>
      </trkpt>
      <trkpt lat="45.92388" lon="6.52845">
        <ele>2379</ele>
        <time>2025-04-02T10:42:46Z</time>
      </trkpt>
      <trkpt lat="45.92393" lon="6.52871">
        <ele>2380</ele>
        <time>2025-04-02T10:43:34Z</time>
      </trkpt>
      <trkpt lat="45.92407" lon="6.5289">
        <ele>2382</ele>
        <time>2025-04-02T10:44:12Z</time>
      </trkpt>
      <trkpt lat="45.92416" lon="6.52892">
        <ele>2385</ele>
        <time>2025-04-02T10:44:38Z</time>
      </trkpt>
      <trkpt lat="45.92423" lon="6.52902">
        <ele>2386</ele>
        <time>2025-04-02T10:45:02Z</time>
      </trkpt>
      <trkpt lat="45.9244" lon="6.52912">
        <ele>2392</ele>
        <time>2025-04-02T10:45:50Z</time>
      </trkpt>
      <trkpt lat="45.9244" lon="6.52939">
        <ele>2399</ele>
        <time>2025-04-02T10:46:40Z</time>
      </trkpt>
      <trkpt lat="45.9244" lon="6.52953">
        <ele>2402</ele>
        <time>2025-04-02T10:47:08Z</time>
      </trkpt>
      <trkpt lat="45.92446" lon="6.52963">
        <ele>2405</ele>
        <time>2025-04-02T10:47:36Z</time>
      </trkpt>
      <trkpt lat="45.92449" lon="6.52976">
        <ele>2409</ele>
        <time>2025-04-02T10:48:08Z</time>
      </trkpt>
      <trkpt lat="45.92445" lon="6.52988">
        <ele>2412</ele>
        <time>2025-04-02T10:48:28Z</time>
      </trkpt>
      <trkpt lat="45.92453" lon="6.52991">
        <ele>2414</ele>
        <time>2025-04-02T10:48:54Z</time>
      </trkpt>
      <trkpt lat="45.92463" lon="6.52989">
        <ele>2421</ele>
        <time>2025-04-02T10:49:14Z</time>
      </trkpt>
      <trkpt lat="45.92465" lon="6.53002">
        <ele>2424</ele>
        <time>2025-04-02T10:49:58Z</time>
      </trkpt>
      <trkpt lat="45.92462" lon="6.53011">
        <ele>2426</ele>
        <time>2025-04-02T10:50:14Z</time>
      </trkpt>
      <trkpt lat="45.9246" lon="6.53015">
        <ele>2429</ele>
        <time>2025-04-02T10:50:24Z</time>
      </trkpt>
      <trkpt lat="45.92457" lon="6.5302">
        <ele>2430</ele>
        <time>2025-04-02T10:50:34Z</time>
      </trkpt>
      <trkpt lat="45.92455" lon="6.53024">
        <ele>2431</ele>
        <time>2025-04-02T10:50:42Z</time>
      </trkpt>
      <trkpt lat="45.92452" lon="6.53027">
        <ele>2434</ele>
        <time>2025-04-02T10:50:50Z</time>
      </trkpt>
      <trkpt lat="45.92451" lon="6.53032">
        <ele>2436</ele>
        <time>2025-04-02T10:50:58Z</time>
      </trkpt>
      <trkpt lat="45.92437" lon="6.53043">
        <ele>2439</ele>
        <time>2025-04-02T10:51:34Z</time>
      </trkpt>
      <trkpt lat="45.92435" lon="6.53047">
        <ele>2440</ele>
        <time>2025-04-02T10:52:06Z</time>
      </trkpt>
      <trkpt lat="45.92431" lon="6.53051">
        <ele>2442</ele>
        <time>2025-04-02T10:52:14Z</time>
      </trkpt>
      <trkpt lat="45.92425" lon="6.53056">
        <ele>2445</ele>
        <time>2025-04-02T10:52:30Z</time>
      </trkpt>
      <trkpt lat="45.92423" lon="6.53061">
        <ele>2447</ele>
        <time>2025-04-02T10:52:42Z</time>
      </trkpt>
      <trkpt lat="45.92421" lon="6.53066">
        <ele>2448</ele>
        <time>2025-04-02T10:52:50Z</time>
      </trkpt>
      <trkpt lat="45.92425" lon="6.53067">
        <ele>2449</ele>
        <time>2025-04-02T10:53:48Z</time>
      </trkpt>
      <trkpt lat="45.92441" lon="6.53069">
        <ele>2450</ele>
        <time>2025-04-02T10:54:18Z</time>
      </trkpt>
      <trkpt lat="45.9246" lon="6.53068">
        <ele>2451</ele>
        <time>2025-04-02T10:54:50Z</time>
      </trkpt>
      <trkpt lat="45.92479" lon="6.53063">
        <ele>2454</ele>
        <time>2025-04-02T10:55:36Z</time>
      </trkpt>
      <trkpt lat="45.92484" lon="6.53073">
        <ele>2456</ele>
        <time>2025-04-02T10:56:30Z</time>
      </trkpt>
      <trkpt lat="45.92478" lon="6.53083">
        <ele>2457</ele>
        <time>2025-04-02T10:56:54Z</time>
      </trkpt>
      <trkpt lat="45.92471" lon="6.53092">
        <ele>2463</ele>
        <time>2025-04-02T10:57:18Z</time>
      </trkpt>
      <trkpt lat="45.92467" lon="6.53094">
        <ele>2467</ele>
        <time>2025-04-02T10:58:30Z</time>
      </trkpt>
      <trkpt lat="45.92467" lon="6.53094">
        <ele>2468</ele>
        <time>2025-04-02T10:59:03Z</time>
      </trkpt>
      <trkpt lat="45.92468" lon="6.53095">
        <ele>2470</ele>
        <time>2025-04-02T11:23:16Z</time>
      </trkpt>
      <trkpt lat="45.92471" lon="6.53092">
        <ele>2470</ele>
        <time>2025-04-02T11:33:02Z</time>
      </trkpt>
      <trkpt lat="45.92474" lon="6.53089">
        <ele>2470</ele>
        <time>2025-04-02T11:33:14Z</time>
      </trkpt>
      <trkpt lat="45.92477" lon="6.53086">
        <ele>2464</ele>
        <time>2025-04-02T11:33:24Z</time>
      </trkpt>
      <trkpt lat="45.92479" lon="6.53082">
        <ele>2464</ele>
        <time>2025-04-02T11:35:02Z</time>
      </trkpt>
      <trkpt lat="45.92491" lon="6.53065">
        <ele>2458</ele>
        <time>2025-04-02T11:35:08Z</time>
      </trkpt>
      <trkpt lat="45.92494" lon="6.5306">
        <ele>2457</ele>
        <time>2025-04-02T11:35:12Z</time>
      </trkpt>
      <trkpt lat="45.92494" lon="6.53052">
        <ele>2455</ele>
        <time>2025-04-02T11:35:32Z</time>
      </trkpt>
      <trkpt lat="45.92497" lon="6.53043">
        <ele>2454</ele>
        <time>2025-04-02T11:35:34Z</time>
      </trkpt>
      <trkpt lat="45.92494" lon="6.53039">
        <ele>2452</ele>
        <time>2025-04-02T11:35:36Z</time>
      </trkpt>
      <trkpt lat="45.92492" lon="6.53033">
        <ele>2451</ele>
        <time>2025-04-02T11:35:38Z</time>
      </trkpt>
      <trkpt lat="45.92486" lon="6.5303">
        <ele>2448</ele>
        <time>2025-04-02T11:35:40Z</time>
      </trkpt>
      <trkpt lat="45.92485" lon="6.53019">
        <ele>2445</ele>
        <time>2025-04-02T11:35:42Z</time>
      </trkpt>
      <trkpt lat="45.92488" lon="6.53007">
        <ele>2443</ele>
        <time>2025-04-02T11:35:44Z</time>
      </trkpt>
      <trkpt lat="45.92487" lon="6.53">
        <ele>2441</ele>
        <time>2025-04-02T11:35:46Z</time>
      </trkpt>
      <trkpt lat="45.92484" lon="6.52996">
        <ele>2438</ele>
        <time>2025-04-02T11:35:48Z</time>
      </trkpt>
      <trkpt lat="45.92477" lon="6.52996">
        <ele>2436</ele>
        <time>2025-04-02T11:35:50Z</time>
      </trkpt>
      <trkpt lat="45.92475" lon="6.52985">
        <ele>2432</ele>
        <time>2025-04-02T11:35:52Z</time>
      </trkpt>
      <trkpt lat="45.92478" lon="6.52959">
        <ele>2428</ele>
        <time>2025-04-02T11:35:56Z</time>
      </trkpt>
      <trkpt lat="45.92471" lon="6.52955">
        <ele>2425</ele>
        <time>2025-04-02T11:35:58Z</time>
      </trkpt>
      <trkpt lat="45.92467" lon="6.52947">
        <ele>2421</ele>
        <time>2025-04-02T11:36:00Z</time>
      </trkpt>
      <trkpt lat="45.92462" lon="6.52941">
        <ele>2418</ele>
        <time>2025-04-02T11:36:02Z</time>
      </trkpt>
      <trkpt lat="45.92469" lon="6.52914">
        <ele>2409</ele>
        <time>2025-04-02T11:36:40Z</time>
      </trkpt>
      <trkpt lat="45.92469" lon="6.52906">
        <ele>2408</ele>
        <time>2025-04-02T11:36:42Z</time>
      </trkpt>
      <trkpt lat="45.92464" lon="6.52904">
        <ele>2406</ele>
        <time>2025-04-02T11:36:44Z</time>
      </trkpt>
      <trkpt lat="45.92461" lon="6.52896">
        <ele>2404</ele>
        <time>2025-04-02T11:36:46Z</time>
      </trkpt>
      <trkpt lat="45.92458" lon="6.5289">
        <ele>2402</ele>
        <time>2025-04-02T11:36:48Z</time>
      </trkpt>
      <trkpt lat="45.92451" lon="6.52888">
        <ele>2398</ele>
        <time>2025-04-02T11:36:50Z</time>
      </trkpt>
      <trkpt lat="45.92447" lon="6.5288">
        <ele>2396</ele>
        <time>2025-04-02T11:36:52Z</time>
      </trkpt>
      <trkpt lat="45.92445" lon="6.52869">
        <ele>2390</ele>
        <time>2025-04-02T11:36:54Z</time>
      </trkpt>
      <trkpt lat="45.92439" lon="6.52867">
        <ele>2388</ele>
        <time>2025-04-02T11:36:56Z</time>
      </trkpt>
      <trkpt lat="45.92436" lon="6.52857">
        <ele>2382</ele>
        <time>2025-04-02T11:36:58Z</time>
      </trkpt>
      <trkpt lat="45.92435" lon="6.5285">
        <ele>2379</ele>
        <time>2025-04-02T11:37:00Z</time>
      </trkpt>
      <trkpt lat="45.92437" lon="6.52839">
        <ele>2374</ele>
        <time>2025-04-02T11:37:02Z</time>
      </trkpt>
      <trkpt lat="45.92431" lon="6.52834">
        <ele>2370</ele>
        <time>2025-04-02T11:37:04Z</time>
      </trkpt>
      <trkpt lat="45.92433" lon="6.52825">
        <ele>2368</ele>
        <time>2025-04-02T11:37:06Z</time>
      </trkpt>
      <trkpt lat="45.92438" lon="6.52814">
        <ele>2364</ele>
        <time>2025-04-02T11:37:08Z</time>
      </trkpt>
      <trkpt lat="45.92446" lon="6.5279">
        <ele>2361</ele>
        <time>2025-04-02T11:37:12Z</time>
      </trkpt>
      <trkpt lat="45.92449" lon="6.52757">
        <ele>2359</ele>
        <time>2025-04-02T11:37:42Z</time>
      </trkpt>
      <trkpt lat="45.9245" lon="6.52748">
        <ele>2358</ele>
        <time>2025-04-02T11:37:44Z</time>
      </trkpt>
      <trkpt lat="45.92448" lon="6.5274">
        <ele>2358</ele>
        <time>2025-04-02T11:37:46Z</time>
      </trkpt>
      <trkpt lat="45.92442" lon="6.52737">
        <ele>2355</ele>
        <time>2025-04-02T11:37:48Z</time>
      </trkpt>
      <trkpt lat="45.92438" lon="6.52731">
        <ele>2353</ele>
        <time>2025-04-02T11:37:50Z</time>
      </trkpt>
      <trkpt lat="45.92439" lon="6.52726">
        <ele>2349</ele>
        <time>2025-04-02T11:37:52Z</time>
      </trkpt>
      <trkpt lat="45.92437" lon="6.52718">
        <ele>2347</ele>
        <time>2025-04-02T11:37:54Z</time>
      </trkpt>
      <trkpt lat="45.92432" lon="6.5271">
        <ele>2341</ele>
        <time>2025-04-02T11:37:58Z</time>
      </trkpt>
      <trkpt lat="45.92432" lon="6.52704">
        <ele>2337</ele>
        <time>2025-04-02T11:38:00Z</time>
      </trkpt>
      <trkpt lat="45.92431" lon="6.52697">
        <ele>2335</ele>
        <time>2025-04-02T11:38:02Z</time>
      </trkpt>
      <trkpt lat="45.9243" lon="6.52692">
        <ele>2332</ele>
        <time>2025-04-02T11:38:04Z</time>
      </trkpt>
      <trkpt lat="45.92434" lon="6.52687">
        <ele>2331</ele>
        <time>2025-04-02T11:38:06Z</time>
      </trkpt>
      <trkpt lat="45.92433" lon="6.52681">
        <ele>2329</ele>
        <time>2025-04-02T11:38:08Z</time>
      </trkpt>
      <trkpt lat="45.9243" lon="6.52677">
        <ele>2328</ele>
        <time>2025-04-02T11:38:10Z</time>
      </trkpt>
      <trkpt lat="45.92432" lon="6.5267">
        <ele>2325</ele>
        <time>2025-04-02T11:38:14Z</time>
      </trkpt>
      <trkpt lat="45.92429" lon="6.52666">
        <ele>2323</ele>
        <time>2025-04-02T11:38:16Z</time>
      </trkpt>
      <trkpt lat="45.92442" lon="6.52636">
        <ele>2317</ele>
        <time>2025-04-02T11:38:24Z</time>
      </trkpt>
      <trkpt lat="45.92446" lon="6.5262">
        <ele>2315</ele>
        <time>2025-04-02T11:38:28Z</time>
      </trkpt>
      <trkpt lat="45.92441" lon="6.52616">
        <ele>2312</ele>
        <time>2025-04-02T11:38:50Z</time>
      </trkpt>
      <trkpt lat="45.92437" lon="6.52623">
        <ele>2310</ele>
        <time>2025-04-02T11:38:52Z</time>
      </trkpt>
      <trkpt lat="45.92433" lon="6.52623">
        <ele>2308</ele>
        <time>2025-04-02T11:38:54Z</time>
      </trkpt>
      <trkpt lat="45.92429" lon="6.52619">
        <ele>2306</ele>
        <time>2025-04-02T11:38:56Z</time>
      </trkpt>
      <trkpt lat="45.92425" lon="6.52612">
        <ele>2304</ele>
        <time>2025-04-02T11:38:58Z</time>
      </trkpt>
      <trkpt lat="45.92422" lon="6.52605">
        <ele>2302</ele>
        <time>2025-04-02T11:39:00Z</time>
      </trkpt>
      <trkpt lat="45.92419" lon="6.52598">
        <ele>2299</ele>
        <time>2025-04-02T11:39:02Z</time>
      </trkpt>
      <trkpt lat="45.92421" lon="6.52587">
        <ele>2297</ele>
        <time>2025-04-02T11:39:04Z</time>
      </trkpt>
      <trkpt lat="45.92421" lon="6.52578">
        <ele>2296</ele>
        <time>2025-04-02T11:39:06Z</time>
      </trkpt>
      <trkpt lat="45.92417" lon="6.52572">
        <ele>2292</ele>
        <time>2025-04-02T11:39:08Z</time>
      </trkpt>
      <trkpt lat="45.92413" lon="6.52563">
        <ele>2288</ele>
        <time>2025-04-02T11:39:10Z</time>
      </trkpt>
      <trkpt lat="45.92415" lon="6.52554">
        <ele>2282</ele>
        <time>2025-04-02T11:39:12Z</time>
      </trkpt>
      <trkpt lat="45.9242" lon="6.52547">
        <ele>2279</ele>
        <time>2025-04-02T11:39:14Z</time>
      </trkpt>
      <trkpt lat="45.92423" lon="6.52545">
        <ele>2278</ele>
        <time>2025-04-02T11:39:16Z</time>
      </trkpt>
      <trkpt lat="45.92427" lon="6.52543">
        <ele>2272</ele>
        <time>2025-04-02T11:39:36Z</time>
      </trkpt>
      <trkpt lat="45.92431" lon="6.52537">
        <ele>2270</ele>
        <time>2025-04-02T11:39:38Z</time>
      </trkpt>
      <trkpt lat="45.92445" lon="6.52509">
        <ele>2266</ele>
        <time>2025-04-02T11:39:42Z</time>
      </trkpt>
      <trkpt lat="45.92446" lon="6.52497">
        <ele>2263</ele>
        <time>2025-04-02T11:39:44Z</time>
      </trkpt>
      <trkpt lat="45.92442" lon="6.52474">
        <ele>2259</ele>
        <time>2025-04-02T11:39:48Z</time>
      </trkpt>
      <trkpt lat="45.92447" lon="6.52438">
        <ele>2254</ele>
        <time>2025-04-02T11:39:52Z</time>
      </trkpt>
      <trkpt lat="45.92452" lon="6.52404">
        <ele>2250</ele>
        <time>2025-04-02T11:39:56Z</time>
      </trkpt>
      <trkpt lat="45.92458" lon="6.52336">
        <ele>2245</ele>
        <time>2025-04-02T11:40:04Z</time>
      </trkpt>
      <trkpt lat="45.92463" lon="6.52322">
        <ele>2244</ele>
        <time>2025-04-02T11:40:08Z</time>
      </trkpt>
      <trkpt lat="45.92466" lon="6.52306">
        <ele>2240</ele>
        <time>2025-04-02T11:40:18Z</time>
      </trkpt>
      <trkpt lat="45.92468" lon="6.52294">
        <ele>2238</ele>
        <time>2025-04-02T11:40:20Z</time>
      </trkpt>
      <trkpt lat="45.92461" lon="6.52284">
        <ele>2234</ele>
        <time>2025-04-02T11:40:22Z</time>
      </trkpt>
      <trkpt lat="45.92458" lon="6.52269">
        <ele>2229</ele>
        <time>2025-04-02T11:40:24Z</time>
      </trkpt>
      <trkpt lat="45.92453" lon="6.52253">
        <ele>2226</ele>
        <time>2025-04-02T11:40:26Z</time>
      </trkpt>
      <trkpt lat="45.92453" lon="6.52238">
        <ele>2223</ele>
        <time>2025-04-02T11:40:28Z</time>
      </trkpt>
      <trkpt lat="45.92447" lon="6.52209">
        <ele>2221</ele>
        <time>2025-04-02T11:40:32Z</time>
      </trkpt>
      <trkpt lat="45.92448" lon="6.52171">
        <ele>2218</ele>
        <time>2025-04-02T11:40:42Z</time>
      </trkpt>
      <trkpt lat="45.92461" lon="6.52124">
        <ele>2213</ele>
        <time>2025-04-02T11:40:50Z</time>
      </trkpt>
      <trkpt lat="45.92464" lon="6.5212">
        <ele>2212</ele>
        <time>2025-04-02T11:40:52Z</time>
      </trkpt>
      <trkpt lat="45.92472" lon="6.52112">
        <ele>2211</ele>
        <time>2025-04-02T11:41:02Z</time>
      </trkpt>
      <trkpt lat="45.92481" lon="6.5211">
        <ele>2209</ele>
        <time>2025-04-02T11:41:04Z</time>
      </trkpt>
      <trkpt lat="45.92492" lon="6.52102">
        <ele>2207</ele>
        <time>2025-04-02T11:41:06Z</time>
      </trkpt>
      <trkpt lat="45.92513" lon="6.52046">
        <ele>2202</ele>
        <time>2025-04-02T11:41:16Z</time>
      </trkpt>
      <trkpt lat="45.92517" lon="6.52042">
        <ele>2202</ele>
        <time>2025-04-02T11:41:18Z</time>
      </trkpt>
      <trkpt lat="45.92521" lon="6.52043">
        <ele>2201</ele>
        <time>2025-04-02T11:41:36Z</time>
      </trkpt>
      <trkpt lat="45.92525" lon="6.5203">
        <ele>2200</ele>
        <time>2025-04-02T11:41:54Z</time>
      </trkpt>
      <trkpt lat="45.92525" lon="6.52008">
        <ele>2192</ele>
        <time>2025-04-02T11:41:58Z</time>
      </trkpt>
      <trkpt lat="45.92531" lon="6.51997">
        <ele>2187</ele>
        <time>2025-04-02T11:42:00Z</time>
      </trkpt>
      <trkpt lat="45.92533" lon="6.51981">
        <ele>2182</ele>
        <time>2025-04-02T11:42:02Z</time>
      </trkpt>
      <trkpt lat="45.92541" lon="6.51973">
        <ele>2180</ele>
        <time>2025-04-02T11:42:04Z</time>
      </trkpt>
      <trkpt lat="45.92547" lon="6.51962">
        <ele>2175</ele>
        <time>2025-04-02T11:42:06Z</time>
      </trkpt>
      <trkpt lat="45.9256" lon="6.51955">
        <ele>2172</ele>
        <time>2025-04-02T11:42:10Z</time>
      </trkpt>
      <trkpt lat="45.92569" lon="6.51953">
        <ele>2168</ele>
        <time>2025-04-02T11:42:48Z</time>
      </trkpt>
      <trkpt lat="45.92572" lon="6.5194">
        <ele>2168</ele>
        <time>2025-04-02T11:42:52Z</time>
      </trkpt>
      <trkpt lat="45.92563" lon="6.51923">
        <ele>2162</ele>
        <time>2025-04-02T11:42:56Z</time>
      </trkpt>
      <trkpt lat="45.92555" lon="6.51905">
        <ele>2160</ele>
        <time>2025-04-02T11:43:00Z</time>
      </trkpt>
      <trkpt lat="45.92557" lon="6.51891">
        <ele>2155</ele>
        <time>2025-04-02T11:43:04Z</time>
      </trkpt>
      <trkpt lat="45.9256" lon="6.51874">
        <ele>2150</ele>
        <time>2025-04-02T11:43:08Z</time>
      </trkpt>
      <trkpt lat="45.92567" lon="6.51861">
        <ele>2140</ele>
        <time>2025-04-02T11:43:12Z</time>
      </trkpt>
      <trkpt lat="45.92579" lon="6.51867">
        <ele>2132</ele>
        <time>2025-04-02T11:43:34Z</time>
      </trkpt>
      <trkpt lat="45.92588" lon="6.51879">
        <ele>2127</ele>
        <time>2025-04-02T11:43:38Z</time>
      </trkpt>
      <trkpt lat="45.92596" lon="6.51886">
        <ele>2125</ele>
        <time>2025-04-02T11:43:42Z</time>
      </trkpt>
      <trkpt lat="45.92604" lon="6.51893">
        <ele>2122</ele>
        <time>2025-04-02T11:43:46Z</time>
      </trkpt>
      <trkpt lat="45.92615" lon="6.51903">
        <ele>2117</ele>
        <time>2025-04-02T11:43:52Z</time>
      </trkpt>
      <trkpt lat="45.92625" lon="6.51904">
        <ele>2115</ele>
        <time>2025-04-02T11:43:56Z</time>
      </trkpt>
      <trkpt lat="45.92636" lon="6.51904">
        <ele>2111</ele>
        <time>2025-04-02T11:44:02Z</time>
      </trkpt>
      <trkpt lat="45.92641" lon="6.5189">
        <ele>2109</ele>
        <time>2025-04-02T11:44:28Z</time>
      </trkpt>
      <trkpt lat="45.92638" lon="6.51855">
        <ele>2102</ele>
        <time>2025-04-02T11:44:34Z</time>
      </trkpt>
      <trkpt lat="45.92638" lon="6.51836">
        <ele>2097</ele>
        <time>2025-04-02T11:44:38Z</time>
      </trkpt>
      <trkpt lat="45.92648" lon="6.51819">
        <ele>2090</ele>
        <time>2025-04-02T11:44:42Z</time>
      </trkpt>
      <trkpt lat="45.92654" lon="6.51806">
        <ele>2087</ele>
        <time>2025-04-02T11:44:44Z</time>
      </trkpt>
      <trkpt lat="45.92665" lon="6.51799">
        <ele>2082</ele>
        <time>2025-04-02T11:44:46Z</time>
      </trkpt>
      <trkpt lat="45.92678" lon="6.51813">
        <ele>2080</ele>
        <time>2025-04-02T11:44:50Z</time>
      </trkpt>
      <trkpt lat="45.92689" lon="6.51815">
        <ele>2077</ele>
        <time>2025-04-02T11:44:54Z</time>
      </trkpt>
      <trkpt lat="45.92699" lon="6.51816">
        <ele>2075</ele>
        <time>2025-04-02T11:45:26Z</time>
      </trkpt>
      <trkpt lat="45.92707" lon="6.51823">
        <ele>2071</ele>
        <time>2025-04-02T11:45:46Z</time>
      </trkpt>
      <trkpt lat="45.92718" lon="6.51837">
        <ele>2068</ele>
        <time>2025-04-02T11:45:50Z</time>
      </trkpt>
      <trkpt lat="45.92728" lon="6.51847">
        <ele>2065</ele>
        <time>2025-04-02T11:45:54Z</time>
      </trkpt>
      <trkpt lat="45.92738" lon="6.51853">
        <ele>2063</ele>
        <time>2025-04-02T11:46:00Z</time>
      </trkpt>
      <trkpt lat="45.92748" lon="6.51854">
        <ele>2060</ele>
        <time>2025-04-02T11:46:04Z</time>
      </trkpt>
      <trkpt lat="45.92751" lon="6.5184">
        <ele>2059</ele>
        <time>2025-04-02T11:46:08Z</time>
      </trkpt>
      <trkpt lat="45.92752" lon="6.51826">
        <ele>2053</ele>
        <time>2025-04-02T11:46:12Z</time>
      </trkpt>
      <trkpt lat="45.92752" lon="6.51811">
        <ele>2050</ele>
        <time>2025-04-02T11:46:16Z</time>
      </trkpt>
      <trkpt lat="45.92756" lon="6.518">
        <ele>2042</ele>
        <time>2025-04-02T11:46:20Z</time>
      </trkpt>
      <trkpt lat="45.92757" lon="6.51785">
        <ele>2038</ele>
        <time>2025-04-02T11:46:24Z</time>
      </trkpt>
      <trkpt lat="45.92756" lon="6.51765">
        <ele>2032</ele>
        <time>2025-04-02T11:46:28Z</time>
      </trkpt>
      <trkpt lat="45.92769" lon="6.51765">
        <ele>2025</ele>
        <time>2025-04-02T11:46:50Z</time>
      </trkpt>
      <trkpt lat="45.92773" lon="6.51747">
        <ele>2020</ele>
        <time>2025-04-02T11:46:54Z</time>
      </trkpt>
      <trkpt lat="45.92775" lon="6.51727">
        <ele>2015</ele>
        <time>2025-04-02T11:46:58Z</time>
      </trkpt>
      <trkpt lat="45.92781" lon="6.51714">
        <ele>2008</ele>
        <time>2025-04-02T11:47:00Z</time>
      </trkpt>
      <trkpt lat="45.92776" lon="6.517">
        <ele>2005</ele>
        <time>2025-04-02T11:47:02Z</time>
      </trkpt>
      <trkpt lat="45.92784" lon="6.51693">
        <ele>2002</ele>
        <time>2025-04-02T11:47:04Z</time>
      </trkpt>
      <trkpt lat="45.92791" lon="6.51683">
        <ele>1996</ele>
        <time>2025-04-02T11:47:06Z</time>
      </trkpt>
      <trkpt lat="45.92793" lon="6.51667">
        <ele>1993</ele>
        <time>2025-04-02T11:47:08Z</time>
      </trkpt>
      <trkpt lat="45.928" lon="6.51657">
        <ele>1988</ele>
        <time>2025-04-02T11:47:10Z</time>
      </trkpt>
      <trkpt lat="45.92806" lon="6.51644">
        <ele>1986</ele>
        <time>2025-04-02T11:47:14Z</time>
      </trkpt>
      <trkpt lat="45.92818" lon="6.51647">
        <ele>1981</ele>
        <time>2025-04-02T11:47:32Z</time>
      </trkpt>
      <trkpt lat="45.92829" lon="6.5166">
        <ele>1979</ele>
        <time>2025-04-02T11:47:36Z</time>
      </trkpt>
      <trkpt lat="45.92837" lon="6.51673">
        <ele>1978</ele>
        <time>2025-04-02T11:47:40Z</time>
      </trkpt>
      <trkpt lat="45.92847" lon="6.51674">
        <ele>1975</ele>
        <time>2025-04-02T11:47:44Z</time>
      </trkpt>
      <trkpt lat="45.92862" lon="6.51674">
        <ele>1969</ele>
        <time>2025-04-02T11:47:48Z</time>
      </trkpt>
      <trkpt lat="45.92867" lon="6.51656">
        <ele>1966</ele>
        <time>2025-04-02T11:47:52Z</time>
      </trkpt>
      <trkpt lat="45.92873" lon="6.51642">
        <ele>1957</ele>
        <time>2025-04-02T11:47:56Z</time>
      </trkpt>
      <trkpt lat="45.92879" lon="6.51629">
        <ele>1953</ele>
        <time>2025-04-02T11:48:00Z</time>
      </trkpt>
      <trkpt lat="45.92888" lon="6.51613">
        <ele>1945</ele>
        <time>2025-04-02T11:48:40Z</time>
      </trkpt>
      <trkpt lat="45.92887" lon="6.516">
        <ele>1945</ele>
        <time>2025-04-02T11:48:42Z</time>
      </trkpt>
      <trkpt lat="45.92894" lon="6.5159">
        <ele>1937</ele>
        <time>2025-04-02T11:48:44Z</time>
      </trkpt>
      <trkpt lat="45.92897" lon="6.51577">
        <ele>1933</ele>
        <time>2025-04-02T11:48:46Z</time>
      </trkpt>
      <trkpt lat="45.92905" lon="6.51567">
        <ele>1928</ele>
        <time>2025-04-02T11:48:48Z</time>
      </trkpt>
      <trkpt lat="45.92903" lon="6.51553">
        <ele>1925</ele>
        <time>2025-04-02T11:48:50Z</time>
      </trkpt>
      <trkpt lat="45.92913" lon="6.5153">
        <ele>1918</ele>
        <time>2025-04-02T11:48:54Z</time>
      </trkpt>
      <trkpt lat="45.92918" lon="6.515">
        <ele>1912</ele>
        <time>2025-04-02T11:48:58Z</time>
      </trkpt>
      <trkpt lat="45.92926" lon="6.51482">
        <ele>1907</ele>
        <time>2025-04-02T11:49:01Z</time>
      </trkpt>
      <trkpt lat="45.92934" lon="6.51461">
        <ele>1903</ele>
        <time>2025-04-02T11:49:06Z</time>
      </trkpt>
      <trkpt lat="45.92943" lon="6.51455">
        <ele>1898</ele>
        <time>2025-04-02T11:49:08Z</time>
      </trkpt>
      <trkpt lat="45.92954" lon="6.51444">
        <ele>1892</ele>
        <time>2025-04-02T11:49:12Z</time>
      </trkpt>
      <trkpt lat="45.92957" lon="6.51429">
        <ele>1883</ele>
        <time>2025-04-02T11:49:15Z</time>
      </trkpt>
      <trkpt lat="45.92967" lon="6.51426">
        <ele>1880</ele>
        <time>2025-04-02T11:49:18Z</time>
      </trkpt>
      <trkpt lat="45.92976" lon="6.51416">
        <ele>1871</ele>
        <time>2025-04-02T11:49:47Z</time>
      </trkpt>
      <trkpt lat="45.92975" lon="6.51395">
        <ele>1866</ele>
        <time>2025-04-02T11:49:52Z</time>
      </trkpt>
      <trkpt lat="45.92974" lon="6.51378">
        <ele>1857</ele>
        <time>2025-04-02T11:49:55Z</time>
      </trkpt>
      <trkpt lat="45.92971" lon="6.51358">
        <ele>1854</ele>
        <time>2025-04-02T11:49:57Z</time>
      </trkpt>
      <trkpt lat="45.92976" lon="6.5134">
        <ele>1848</ele>
        <time>2025-04-02T11:49:59Z</time>
      </trkpt>
      <trkpt lat="45.92978" lon="6.51316">
        <ele>1845</ele>
        <time>2025-04-02T11:50:03Z</time>
      </trkpt>
      <trkpt lat="45.92979" lon="6.51292">
        <ele>1839</ele>
        <time>2025-04-02T11:50:07Z</time>
      </trkpt>
      <trkpt lat="45.92978" lon="6.51267">
        <ele>1834</ele>
        <time>2025-04-02T11:50:11Z</time>
      </trkpt>
      <trkpt lat="45.92978" lon="6.51252">
        <ele>1832</ele>
        <time>2025-04-02T11:50:13Z</time>
      </trkpt>
      <trkpt lat="45.92978" lon="6.51238">
        <ele>1828</ele>
        <time>2025-04-02T11:50:15Z</time>
      </trkpt>
      <trkpt lat="45.92981" lon="6.51225">
        <ele>1826</ele>
        <time>2025-04-02T11:50:17Z</time>
      </trkpt>
      <trkpt lat="45.9298" lon="6.5121">
        <ele>1822</ele>
        <time>2025-04-02T11:50:19Z</time>
      </trkpt>
      <trkpt lat="45.92977" lon="6.51197">
        <ele>1821</ele>
        <time>2025-04-02T11:50:21Z</time>
      </trkpt>
      <trkpt lat="45.92975" lon="6.51171">
        <ele>1816</ele>
        <time>2025-04-02T11:50:25Z</time>
      </trkpt>
      <trkpt lat="45.92973" lon="6.51161">
        <ele>1815</ele>
        <time>2025-04-02T11:50:41Z</time>
      </trkpt>
      <trkpt lat="45.92976" lon="6.51151">
        <ele>1812</ele>
        <time>2025-04-02T11:50:43Z</time>
      </trkpt>
      <trkpt lat="45.92979" lon="6.51129">
        <ele>1810</ele>
        <time>2025-04-02T11:50:46Z</time>
      </trkpt>
      <trkpt lat="45.92986" lon="6.51105">
        <ele>1808</ele>
        <time>2025-04-02T11:50:49Z</time>
      </trkpt>
      <trkpt lat="45.92995" lon="6.51081">
        <ele>1804</ele>
        <time>2025-04-02T11:50:53Z</time>
      </trkpt>
      <trkpt lat="45.92999" lon="6.51069">
        <ele>1802</ele>
        <time>2025-04-02T11:50:55Z</time>
      </trkpt>
      <trkpt lat="45.93002" lon="6.51055">
        <ele>1799</ele>
        <time>2025-04-02T11:50:57Z</time>
      </trkpt>
      <trkpt lat="45.93003" lon="6.51045">
        <ele>1798</ele>
        <time>2025-04-02T11:50:59Z</time>
      </trkpt>
      <trkpt lat="45.93001" lon="6.51035">
        <ele>1796</ele>
        <time>2025-04-02T11:51:27Z</time>
      </trkpt>
      <trkpt lat="45.93" lon="6.51025">
        <ele>1794</ele>
        <time>2025-04-02T11:51:29Z</time>
      </trkpt>
      <trkpt lat="45.93004" lon="6.51013">
        <ele>1791</ele>
        <time>2025-04-02T11:51:31Z</time>
      </trkpt>
      <trkpt lat="45.9301" lon="6.51002">
        <ele>1787</ele>
        <time>2025-04-02T11:51:33Z</time>
      </trkpt>
      <trkpt lat="45.9301" lon="6.50987">
        <ele>1783</ele>
        <time>2025-04-02T11:51:35Z</time>
      </trkpt>
      <trkpt lat="45.93011" lon="6.50972">
        <ele>1778</ele>
        <time>2025-04-02T11:51:37Z</time>
      </trkpt>
      <trkpt lat="45.93016" lon="6.50959">
        <ele>1774</ele>
        <time>2025-04-02T11:51:39Z</time>
      </trkpt>
      <trkpt lat="45.93015" lon="6.50946">
        <ele>1771</ele>
        <time>2025-04-02T11:51:41Z</time>
      </trkpt>
      <trkpt lat="45.93017" lon="6.50932">
        <ele>1766</ele>
        <time>2025-04-02T11:51:43Z</time>
      </trkpt>
      <trkpt lat="45.93013" lon="6.5092">
        <ele>1762</ele>
        <time>2025-04-02T11:51:45Z</time>
      </trkpt>
      <trkpt lat="45.93016" lon="6.50907">
        <ele>1757</ele>
        <time>2025-04-02T11:51:47Z</time>
      </trkpt>
      <trkpt lat="45.93012" lon="6.50893">
        <ele>1754</ele>
        <time>2025-04-02T11:51:49Z</time>
      </trkpt>
      <trkpt lat="45.9301" lon="6.50882">
        <ele>1751</ele>
        <time>2025-04-02T11:51:51Z</time>
      </trkpt>
      <trkpt lat="45.93007" lon="6.5086">
        <ele>1747</ele>
        <time>2025-04-02T11:52:19Z</time>
      </trkpt>
      <trkpt lat="45.92989" lon="6.50834">
        <ele>1743</ele>
        <time>2025-04-02T11:52:25Z</time>
      </trkpt>
      <trkpt lat="45.92981" lon="6.50821">
        <ele>1740</ele>
        <time>2025-04-02T11:52:29Z</time>
      </trkpt>
      <trkpt lat="45.92988" lon="6.5081">
        <ele>1737</ele>
        <time>2025-04-02T11:52:33Z</time>
      </trkpt>
      <trkpt lat="45.92992" lon="6.50796">
        <ele>1729</ele>
        <time>2025-04-02T11:52:37Z</time>
      </trkpt>
      <trkpt lat="45.92991" lon="6.50779">
        <ele>1724</ele>
        <time>2025-04-02T11:52:41Z</time>
      </trkpt>
      <trkpt lat="45.92998" lon="6.5077">
        <ele>1713</ele>
        <time>2025-04-02T11:54:25Z</time>
      </trkpt>
      <trkpt lat="45.93006" lon="6.50759">
        <ele>1709</ele>
        <time>2025-04-02T11:54:31Z</time>
      </trkpt>
      <trkpt lat="45.93015" lon="6.50762">
        <ele>1705</ele>
        <time>2025-04-02T11:54:35Z</time>
      </trkpt>
      <trkpt lat="45.93022" lon="6.50749">
        <ele>1700</ele>
        <time>2025-04-02T11:54:41Z</time>
      </trkpt>
      <trkpt lat="45.93019" lon="6.5073">
        <ele>1693</ele>
        <time>2025-04-02T11:54:45Z</time>
      </trkpt>
      <trkpt lat="45.93014" lon="6.50719">
        <ele>1691</ele>
        <time>2025-04-02T11:54:49Z</time>
      </trkpt>
      <trkpt lat="45.93008" lon="6.50709">
        <ele>1689</ele>
        <time>2025-04-02T11:54:55Z</time>
      </trkpt>
      <trkpt lat="45.92986" lon="6.50673">
        <ele>1686</ele>
        <time>2025-04-02T11:55:19Z</time>
      </trkpt>
      <trkpt lat="45.92985" lon="6.50667">
        <ele>1684</ele>
        <time>2025-04-02T11:55:21Z</time>
      </trkpt>
      <trkpt lat="45.92987" lon="6.50659">
        <ele>1682</ele>
        <time>2025-04-02T11:55:23Z</time>
      </trkpt>
      <trkpt lat="45.92984" lon="6.50652">
        <ele>1679</ele>
        <time>2025-04-02T11:55:25Z</time>
      </trkpt>
      <trkpt lat="45.92987" lon="6.50648">
        <ele>1678</ele>
        <time>2025-04-02T11:55:27Z</time>
      </trkpt>
      <trkpt lat="45.92988" lon="6.50639">
        <ele>1676</ele>
        <time>2025-04-02T11:55:29Z</time>
      </trkpt>
      <trkpt lat="45.92979" lon="6.50629">
        <ele>1674</ele>
        <time>2025-04-02T11:55:33Z</time>
      </trkpt>
      <trkpt lat="45.92967" lon="6.50612">
        <ele>1673</ele>
        <time>2025-04-02T11:55:39Z</time>
      </trkpt>
      <trkpt lat="45.92954" lon="6.50599">
        <ele>1672</ele>
        <time>2025-04-02T11:55:45Z</time>
      </trkpt>
      <trkpt lat="45.92951" lon="6.50595">
        <ele>1672</ele>
        <time>2025-04-02T11:55:47Z</time>
      </trkpt>
      <trkpt lat="45.92941" lon="6.50572">
        <ele>1671</ele>
        <time>2025-04-02T11:56:03Z</time>
      </trkpt>
      <trkpt lat="45.92938" lon="6.50559">
        <ele>1670</ele>
        <time>2025-04-02T11:56:45Z</time>
      </trkpt>
      <trkpt lat="45.92932" lon="6.50531">
        <ele>1670</ele>
        <time>2025-04-02T11:57:11Z</time>
      </trkpt>
      <trkpt lat="45.92901" lon="6.50493">
        <ele>1671</ele>
        <time>2025-04-02T11:57:41Z</time>
      </trkpt>
      <trkpt lat="45.92895" lon="6.50488">
        <ele>1670</ele>
        <time>2025-04-02T11:57:43Z</time>
      </trkpt>
      <trkpt lat="45.92891" lon="6.50485">
        <ele>1670</ele>
        <time>2025-04-02T11:58:25Z</time>
      </trkpt>
      <trkpt lat="45.92894" lon="6.50477">
        <ele>1667</ele>
        <time>2025-04-02T11:58:27Z</time>
      </trkpt>
      <trkpt lat="45.9289" lon="6.50471">
        <ele>1666</ele>
        <time>2025-04-02T11:58:29Z</time>
      </trkpt>
      <trkpt lat="45.92886" lon="6.50474">
        <ele>1665</ele>
        <time>2025-04-02T11:58:31Z</time>
      </trkpt>
      <trkpt lat="45.92878" lon="6.50475">
        <ele>1663</ele>
        <time>2025-04-02T11:58:35Z</time>
      </trkpt>
      <trkpt lat="45.92865" lon="6.50473">
        <ele>1662</ele>
        <time>2025-04-02T11:58:39Z</time>
      </trkpt>
      <trkpt lat="45.92854" lon="6.50474">
        <ele>1660</ele>
        <time>2025-04-02T11:58:45Z</time>
      </trkpt>
      <trkpt lat="45.92842" lon="6.5046">
        <ele>1658</ele>
        <time>2025-04-02T11:58:49Z</time>
      </trkpt>
      <trkpt lat="45.92833" lon="6.5045">
        <ele>1657</ele>
        <time>2025-04-02T11:58:53Z</time>
      </trkpt>
      <trkpt lat="45.92827" lon="6.50437">
        <ele>1657</ele>
        <time>2025-04-02T11:58:59Z</time>
      </trkpt>
      <trkpt lat="45.92816" lon="6.50413">
        <ele>1655</ele>
        <time>2025-04-02T11:59:07Z</time>
      </trkpt>
      <trkpt lat="45.92809" lon="6.50398">
        <ele>1653</ele>
        <time>2025-04-02T11:59:29Z</time>
      </trkpt>
      <trkpt lat="45.928" lon="6.50391">
        <ele>1650</ele>
        <time>2025-04-02T11:59:33Z</time>
      </trkpt>
      <trkpt lat="45.92801" lon="6.50378">
        <ele>1648</ele>
        <time>2025-04-02T11:59:55Z</time>
      </trkpt>
      <trkpt lat="45.92794" lon="6.50368">
        <ele>1646</ele>
        <time>2025-04-02T11:59:59Z</time>
      </trkpt>
      <trkpt lat="45.92784" lon="6.50352">
        <ele>1644</ele>
        <time>2025-04-02T12:00:03Z</time>
      </trkpt>
      <trkpt lat="45.92784" lon="6.50338">
        <ele>1638</ele>
        <time>2025-04-02T12:00:09Z</time>
      </trkpt>
      <trkpt lat="45.92792" lon="6.50333">
        <ele>1633</ele>
        <time>2025-04-02T12:00:27Z</time>
      </trkpt>
      <trkpt lat="45.92803" lon="6.5033">
        <ele>1626</ele>
        <time>2025-04-02T12:00:41Z</time>
      </trkpt>
      <trkpt lat="45.92795" lon="6.50318">
        <ele>1625</ele>
        <time>2025-04-02T12:00:45Z</time>
      </trkpt>
      <trkpt lat="45.92805" lon="6.50314">
        <ele>1621</ele>
        <time>2025-04-02T12:00:57Z</time>
      </trkpt>
      <trkpt lat="45.92818" lon="6.50312">
        <ele>1615</ele>
        <time>2025-04-02T12:01:05Z</time>
      </trkpt>
      <trkpt lat="45.9283" lon="6.50312">
        <ele>1613</ele>
        <time>2025-04-02T12:01:09Z</time>
      </trkpt>
      <trkpt lat="45.92829" lon="6.50298">
        <ele>1612</ele>
        <time>2025-04-02T12:01:13Z</time>
      </trkpt>
      <trkpt lat="45.92821" lon="6.50283">
        <ele>1608</ele>
        <time>2025-04-02T12:01:17Z</time>
      </trkpt>
      <trkpt lat="45.92797" lon="6.50266">
        <ele>1605</ele>
        <time>2025-04-02T12:01:27Z</time>
      </trkpt>
      <trkpt lat="45.92787" lon="6.50238">
        <ele>1601</ele>
        <time>2025-04-02T12:01:35Z</time>
      </trkpt>
      <trkpt lat="45.92792" lon="6.50218">
        <ele>1596</ele>
        <time>2025-04-02T12:01:55Z</time>
      </trkpt>
      <trkpt lat="45.92792" lon="6.50203">
        <ele>1592</ele>
        <time>2025-04-02T12:01:59Z</time>
      </trkpt>
      <trkpt lat="45.92779" lon="6.50191">
        <ele>1587</ele>
        <time>2025-04-02T12:02:03Z</time>
      </trkpt>
      <trkpt lat="45.92767" lon="6.50179">
        <ele>1585</ele>
        <time>2025-04-02T12:02:07Z</time>
      </trkpt>
      <trkpt lat="45.9276" lon="6.50161">
        <ele>1583</ele>
        <time>2025-04-02T12:02:11Z</time>
      </trkpt>
      <trkpt lat="45.92742" lon="6.50133">
        <ele>1580</ele>
        <time>2025-04-02T12:02:19Z</time>
      </trkpt>
      <trkpt lat="45.92727" lon="6.50103">
        <ele>1577</ele>
        <time>2025-04-02T12:02:27Z</time>
      </trkpt>
      <trkpt lat="45.92715" lon="6.50099">
        <ele>1574</ele>
        <time>2025-04-02T12:03:13Z</time>
      </trkpt>
      <trkpt lat="45.92703" lon="6.50101">
        <ele>1573</ele>
        <time>2025-04-02T12:03:17Z</time>
      </trkpt>
      <trkpt lat="45.92693" lon="6.50082">
        <ele>1571</ele>
        <time>2025-04-02T12:03:21Z</time>
      </trkpt>
      <trkpt lat="45.92697" lon="6.5006">
        <ele>1567</ele>
        <time>2025-04-02T12:03:25Z</time>
      </trkpt>
      <trkpt lat="45.92699" lon="6.50047">
        <ele>1563</ele>
        <time>2025-04-02T12:03:29Z</time>
      </trkpt>
      <trkpt lat="45.92687" lon="6.50037">
        <ele>1560</ele>
        <time>2025-04-02T12:03:39Z</time>
      </trkpt>
      <trkpt lat="45.92685" lon="6.50022">
        <ele>1558</ele>
        <time>2025-04-02T12:03:41Z</time>
      </trkpt>
      <trkpt lat="45.92682" lon="6.50005">
        <ele>1557</ele>
        <time>2025-04-02T12:03:43Z</time>
      </trkpt>
      <trkpt lat="45.9268" lon="6.49979">
        <ele>1552</ele>
        <time>2025-04-02T12:04:33Z</time>
      </trkpt>
      <trkpt lat="45.92687" lon="6.49963">
        <ele>1548</ele>
        <time>2025-04-02T12:04:37Z</time>
      </trkpt>
      <trkpt lat="45.92694" lon="6.49952">
        <ele>1543</ele>
        <time>2025-04-02T12:04:41Z</time>
      </trkpt>
      <trkpt lat="45.92707" lon="6.49941">
        <ele>1536</ele>
        <time>2025-04-02T12:04:45Z</time>
      </trkpt>
      <trkpt lat="45.92713" lon="6.49922">
        <ele>1531</ele>
        <time>2025-04-02T12:04:49Z</time>
      </trkpt>
      <trkpt lat="45.92721" lon="6.49913">
        <ele>1528</ele>
        <time>2025-04-02T12:04:51Z</time>
      </trkpt>
      <trkpt lat="45.9273" lon="6.49904">
        <ele>1521</ele>
        <time>2025-04-02T12:04:55Z</time>
      </trkpt>
      <trkpt lat="45.92739" lon="6.49899">
        <ele>1518</ele>
        <time>2025-04-02T12:04:57Z</time>
      </trkpt>
      <trkpt lat="45.92746" lon="6.49886">
        <ele>1513</ele>
        <time>2025-04-02T12:05:01Z</time>
      </trkpt>
      <trkpt lat="45.92759" lon="6.49874">
        <ele>1508</ele>
        <time>2025-04-02T12:06:33Z</time>
      </trkpt>
      <trkpt lat="45.9278" lon="6.49842">
        <ele>1491</ele>
        <time>2025-04-02T12:06:41Z</time>
      </trkpt>
      <trkpt lat="45.92789" lon="6.4982">
        <ele>1486</ele>
        <time>2025-04-02T12:06:45Z</time>
      </trkpt>
      <trkpt lat="45.92798" lon="6.49813">
        <ele>1482</ele>
        <time>2025-04-02T12:06:47Z</time>
      </trkpt>
      <trkpt lat="45.92801" lon="6.498">
        <ele>1480</ele>
        <time>2025-04-02T12:06:49Z</time>
      </trkpt>
      <trkpt lat="45.92809" lon="6.49789">
        <ele>1477</ele>
        <time>2025-04-02T12:06:51Z</time>
      </trkpt>
      <trkpt lat="45.92816" lon="6.49776">
        <ele>1475</ele>
        <time>2025-04-02T12:06:53Z</time>
      </trkpt>
      <trkpt lat="45.92823" lon="6.49758">
        <ele>1472</ele>
        <time>2025-04-02T12:06:55Z</time>
      </trkpt>
      <trkpt lat="45.92831" lon="6.49739">
        <ele>1470</ele>
        <time>2025-04-02T12:06:57Z</time>
      </trkpt>
      <trkpt lat="45.92839" lon="6.49718">
        <ele>1466</ele>
        <time>2025-04-02T12:06:59Z</time>
      </trkpt>
      <trkpt lat="45.92865" lon="6.49649">
        <ele>1460</ele>
        <time>2025-04-02T12:07:09Z</time>
      </trkpt>
      <trkpt lat="45.92866" lon="6.49635">
        <ele>1457</ele>
        <time>2025-04-02T12:15:27Z</time>
      </trkpt>
      <trkpt lat="45.92859" lon="6.49609">
        <ele>1460</ele>
        <time>2025-04-02T12:16:12Z</time>
      </trkpt>
      <trkpt lat="45.92857" lon="6.49595">
        <ele>1464</ele>
        <time>2025-04-02T12:16:34Z</time>
      </trkpt>
      <trkpt lat="45.92861" lon="6.49582">
        <ele>1466</ele>
        <time>2025-04-02T12:16:52Z</time>
      </trkpt>
      <trkpt lat="45.92865" lon="6.49569">
        <ele>1471</ele>
        <time>2025-04-02T12:17:10Z</time>
      </trkpt>
      <trkpt lat="45.92861" lon="6.49556">
        <ele>1473</ele>
        <time>2025-04-02T12:17:30Z</time>
      </trkpt>
      <trkpt lat="45.92857" lon="6.49544">
        <ele>1476</ele>
        <time>2025-04-02T12:17:44Z</time>
      </trkpt>
      <trkpt lat="45.9285" lon="6.49534">
        <ele>1477</ele>
        <time>2025-04-02T12:18:00Z</time>
      </trkpt>
      <trkpt lat="45.92843" lon="6.49525">
        <ele>1480</ele>
        <time>2025-04-02T12:18:18Z</time>
      </trkpt>
      <trkpt lat="45.92836" lon="6.49516">
        <ele>1481</ele>
        <time>2025-04-02T12:18:36Z</time>
      </trkpt>
      <trkpt lat="45.92828" lon="6.49509">
        <ele>1482</ele>
        <time>2025-04-02T12:18:50Z</time>
      </trkpt>
      <trkpt lat="45.9281" lon="6.49503">
        <ele>1484</ele>
        <time>2025-04-02T12:19:22Z</time>
      </trkpt>
      <trkpt lat="45.92801" lon="6.49498">
        <ele>1486</ele>
        <time>2025-04-02T12:19:38Z</time>
      </trkpt>
      <trkpt lat="45.92792" lon="6.49495">
        <ele>1488</ele>
        <time>2025-04-02T12:19:52Z</time>
      </trkpt>
      <trkpt lat="45.92777" lon="6.4948">
        <ele>1488</ele>
        <time>2025-04-02T12:20:26Z</time>
      </trkpt>
      <trkpt lat="45.92769" lon="6.49474">
        <ele>1490</ele>
        <time>2025-04-02T12:20:42Z</time>
      </trkpt>
      <trkpt lat="45.9277" lon="6.49467">
        <ele>1496</ele>
        <time>2025-04-02T12:20:50Z</time>
      </trkpt>
      <trkpt lat="45.92768" lon="6.49461">
        <ele>1500</ele>
        <time>2025-04-02T12:20:58Z</time>
      </trkpt>
      <trkpt lat="45.92755" lon="6.4945">
        <ele>1497</ele>
        <time>2025-04-02T12:21:14Z</time>
      </trkpt>
      <trkpt lat="45.92739" lon="6.49421">
        <ele>1491</ele>
        <time>2025-04-02T12:21:44Z</time>
      </trkpt>
      <trkpt lat="45.92728" lon="6.49378">
        <ele>1492</ele>
        <time>2025-04-02T12:22:22Z</time>
      </trkpt>
      <trkpt lat="45.92721" lon="6.49366">
        <ele>1492</ele>
        <time>2025-04-02T12:22:34Z</time>
      </trkpt>
      <trkpt lat="45.92712" lon="6.4934">
        <ele>1491</ele>
        <time>2025-04-02T12:22:54Z</time>
      </trkpt>
      <trkpt lat="45.92708" lon="6.49313">
        <ele>1490</ele>
        <time>2025-04-02T12:23:16Z</time>
      </trkpt>
      <trkpt lat="45.92695" lon="6.49289">
        <ele>1488</ele>
        <time>2025-04-02T12:23:36Z</time>
      </trkpt>
      <trkpt lat="45.92688" lon="6.4928">
        <ele>1487</ele>
        <time>2025-04-02T12:23:46Z</time>
      </trkpt>
      <trkpt lat="45.92679" lon="6.49273">
        <ele>1486</ele>
        <time>2025-04-02T12:23:56Z</time>
      </trkpt>
      <trkpt lat="45.92651" lon="6.49261">
        <ele>1487</ele>
        <time>2025-04-02T12:24:30Z</time>
      </trkpt>
      <trkpt lat="45.92628" lon="6.49239">
        <ele>1490</ele>
        <time>2025-04-02T12:25:06Z</time>
      </trkpt>
      <trkpt lat="45.92612" lon="6.49224">
        <ele>1492</ele>
        <time>2025-04-02T12:25:30Z</time>
      </trkpt>
      <trkpt lat="45.92582" lon="6.49218">
        <ele>1495</ele>
        <time>2025-04-02T12:26:04Z</time>
      </trkpt>
      <trkpt lat="45.92564" lon="6.49216">
        <ele>1496</ele>
        <time>2025-04-02T12:26:26Z</time>
      </trkpt>
      <trkpt lat="45.92553" lon="6.49216">
        <ele>1496</ele>
        <time>2025-04-02T12:26:38Z</time>
      </trkpt>
      <trkpt lat="45.92534" lon="6.4921">
        <ele>1498</ele>
        <time>2025-04-02T12:27:00Z</time>
      </trkpt>
      <trkpt lat="45.92527" lon="6.49204">
        <ele>1499</ele>
        <time>2025-04-02T12:27:10Z</time>
      </trkpt>
      <trkpt lat="45.925" lon="6.49191">
        <ele>1501</ele>
        <time>2025-04-02T12:27:38Z</time>
      </trkpt>
      <trkpt lat="45.92497" lon="6.49189">
        <ele>1502</ele>
        <time>2025-04-02T12:27:42Z</time>
      </trkpt>
      <trkpt lat="45.92494" lon="6.49186">
        <ele>1502</ele>
        <time>2025-04-02T12:27:46Z</time>
      </trkpt>
      <trkpt lat="45.92471" lon="6.49156">
        <ele>1504</ele>
        <time>2025-04-02T12:28:22Z</time>
      </trkpt>
      <trkpt lat="45.92453" lon="6.49123">
        <ele>1502</ele>
        <time>2025-04-02T12:28:52Z</time>
      </trkpt>
      <trkpt lat="45.92445" lon="6.49113">
        <ele>1501</ele>
        <time>2025-04-02T12:29:04Z</time>
      </trkpt>
      <trkpt lat="45.92435" lon="6.49108">
        <ele>1498</ele>
        <time>2025-04-02T12:29:14Z</time>
      </trkpt>
      <trkpt lat="45.92414" lon="6.49112">
        <ele>1494</ele>
        <time>2025-04-02T12:29:34Z</time>
      </trkpt>
      <trkpt lat="45.92393" lon="6.49115">
        <ele>1491</ele>
        <time>2025-04-02T12:29:58Z</time>
      </trkpt>
      <trkpt lat="45.92384" lon="6.49116">
        <ele>1489</ele>
        <time>2025-04-02T12:30:08Z</time>
      </trkpt>
      <trkpt lat="45.92366" lon="6.49106">
        <ele>1486</ele>
        <time>2025-04-02T12:30:28Z</time>
      </trkpt>
      <trkpt lat="45.92359" lon="6.49099">
        <ele>1486</ele>
        <time>2025-04-02T12:30:38Z</time>
      </trkpt>
      <trkpt lat="45.92352" lon="6.49089">
        <ele>1485</ele>
        <time>2025-04-02T12:30:48Z</time>
      </trkpt>
      <trkpt lat="45.92337" lon="6.49073">
        <ele>1483</ele>
        <time>2025-04-02T12:31:06Z</time>
      </trkpt>
      <trkpt lat="45.92307" lon="6.49059">
        <ele>1477</ele>
        <time>2025-04-02T12:31:38Z</time>
      </trkpt>
      <trkpt lat="45.92299" lon="6.49055">
        <ele>1476</ele>
        <time>2025-04-02T12:31:46Z</time>
      </trkpt>
      <trkpt lat="45.92288" lon="6.49043">
        <ele>1473</ele>
        <time>2025-04-02T12:32:00Z</time>
      </trkpt>
      <trkpt lat="45.92266" lon="6.49013">
        <ele>1466</ele>
        <time>2025-04-02T12:32:32Z</time>
      </trkpt>
      <trkpt lat="45.92243" lon="6.48984">
        <ele>1462</ele>
        <time>2025-04-02T12:33:02Z</time>
      </trkpt>
      <trkpt lat="45.92226" lon="6.4895">
        <ele>1458</ele>
        <time>2025-04-02T12:33:32Z</time>
      </trkpt>
      <trkpt lat="45.92218" lon="6.48941">
        <ele>1458</ele>
        <time>2025-04-02T12:33:42Z</time>
      </trkpt>
      <trkpt lat="45.92189" lon="6.48904">
        <ele>1456</ele>
        <time>2025-04-02T12:34:18Z</time>
      </trkpt>
      <trkpt lat="45.92173" lon="6.48887">
        <ele>1455</ele>
        <time>2025-04-02T12:34:36Z</time>
      </trkpt>
      <trkpt lat="45.92167" lon="6.48877">
        <ele>1454</ele>
        <time>2025-04-02T12:34:46Z</time>
      </trkpt>
      <trkpt lat="45.92164" lon="6.48863">
        <ele>1454</ele>
        <time>2025-04-02T12:34:58Z</time>
      </trkpt>
      <trkpt lat="45.92174" lon="6.4884">
        <ele>1456</ele>
        <time>2025-04-02T12:35:22Z</time>
      </trkpt>
      <trkpt lat="45.9218" lon="6.48829">
        <ele>1457</ele>
        <time>2025-04-02T12:35:34Z</time>
      </trkpt>
      <trkpt lat="45.92184" lon="6.48816">
        <ele>1457</ele>
        <time>2025-04-02T12:35:46Z</time>
      </trkpt>
      <trkpt lat="45.92175" lon="6.48776">
        <ele>1458</ele>
        <time>2025-04-02T12:36:20Z</time>
      </trkpt>
      <trkpt lat="45.92164" lon="6.48737">
        <ele>1461</ele>
        <time>2025-04-02T12:36:54Z</time>
      </trkpt>
      <trkpt lat="45.92158" lon="6.48713">
        <ele>1463</ele>
        <time>2025-04-02T12:37:14Z</time>
      </trkpt>
      <trkpt lat="45.92153" lon="6.48701">
        <ele>1464</ele>
        <time>2025-04-02T12:37:24Z</time>
      </trkpt>
      <trkpt lat="45.9213" lon="6.48675">
        <ele>1463</ele>
        <time>2025-04-02T12:37:54Z</time>
      </trkpt>
      <trkpt lat="45.92124" lon="6.48665">
        <ele>1462</ele>
        <time>2025-04-02T12:38:04Z</time>
      </trkpt>
      <trkpt lat="45.92119" lon="6.48653">
        <ele>1462</ele>
        <time>2025-04-02T12:38:16Z</time>
      </trkpt>
      <trkpt lat="45.92121" lon="6.48638">
        <ele>1463</ele>
        <time>2025-04-02T12:38:28Z</time>
      </trkpt>
      <trkpt lat="45.92137" lon="6.48596">
        <ele>1469</ele>
        <time>2025-04-02T12:39:00Z</time>
      </trkpt>
      <trkpt lat="45.92151" lon="6.48554">
        <ele>1469</ele>
        <time>2025-04-02T12:39:30Z</time>
      </trkpt>
      <trkpt lat="45.92154" lon="6.4854">
        <ele>1470</ele>
        <time>2025-04-02T12:39:38Z</time>
      </trkpt>
      <trkpt lat="45.92152" lon="6.48516">
        <ele>1467</ele>
        <time>2025-04-02T12:39:56Z</time>
      </trkpt>
      <trkpt lat="45.92153" lon="6.48511">
        <ele>1466</ele>
        <time>2025-04-02T12:40:00Z</time>
      </trkpt>
      <trkpt lat="45.92155" lon="6.48506">
        <ele>1466</ele>
        <time>2025-04-02T12:40:04Z</time>
      </trkpt>
      <trkpt lat="45.92168" lon="6.4849">
        <ele>1466</ele>
        <time>2025-04-02T12:40:20Z</time>
      </trkpt>
      <trkpt lat="45.92191" lon="6.4846">
        <ele>1459</ele>
        <time>2025-04-02T12:40:53Z</time>
      </trkpt>
      <trkpt lat="45.92218" lon="6.48432">
        <ele>1456</ele>
        <time>2025-04-02T12:41:27Z</time>
      </trkpt>
      <trkpt lat="45.92244" lon="6.48411">
        <ele>1449</ele>
        <time>2025-04-02T12:41:57Z</time>
      </trkpt>
      <trkpt lat="45.92274" lon="6.48396">
        <ele>1449</ele>
        <time>2025-04-02T12:42:25Z</time>
      </trkpt>
      <trkpt lat="45.92279" lon="6.48392">
        <ele>1452</ele>
        <time>2025-04-02T12:42:28Z</time>
      </trkpt>
      <trkpt lat="45.92288" lon="6.48388">
        <ele>1456</ele>
        <time>2025-04-02T12:42:39Z</time>
      </trkpt>
    </trkseg>
  </trk>
</gpx>